HAL581 PHOG-KORD
Flight info
| Callsign | HAL581 |
|---|---|
| Flight time | 7h 4m |
| Altitude | 39000 |
| Route | FITES R578 FIZEL 2755N12800W FOOTS/N0484F410 R578 FICKY C1177 SXC KL24K KIDDR KA33Q EBIDE KA42W GCK IRK BENKY6 |
| Aircraft | B789/H-SDE1E2E3FGHIJ2J3J4J5M1RWXY/LB1D1 |
Departure
| Time | 2026-04-24 05:36 |
|---|---|
| Airport | Kahului International Airport (PHOG) |
Arrival
| Time | 2026-04-24 12:40 |
|---|---|
| Airport | Chicago O'Hare International Airport (KORD) |
| Time | Latitude | Longitude | Altitude | Speed | Heading |
|---|---|---|---|---|---|
| 2026-04-24 05:05 | 20.89673 | -156.43382 | 50 ft | 0 kts | 304° |
| 2026-04-24 05:26 | 20.89666 | -156.43371 | 43 ft | 4 kts | 304° |
| 2026-04-24 05:26 | 20.89651 | -156.43347 | 47 ft | 4 kts | 303° |
| 2026-04-24 05:27 | 20.89637 | -156.43322 | 43 ft | 4 kts | 293° |
| 2026-04-24 05:27 | 20.89629 | -156.43295 | 43 ft | 4 kts | 277° |
| 2026-04-24 05:27 | 20.89630 | -156.43268 | 43 ft | 4 kts | 246° |
| 2026-04-24 05:27 | 20.89640 | -156.43252 | 43 ft | 1 kts | 214° |
| 2026-04-24 05:28 | 20.89643 | -156.43251 | 43 ft | 0 kts | 214° |
| 2026-04-24 05:32 | 20.89609 | -156.43275 | 43 ft | 11 kts | 214° |
| 2026-04-24 05:32 | 20.89536 | -156.43330 | 48 ft | 13 kts | 215° |
| 2026-04-24 05:32 | 20.89453 | -156.43392 | 48 ft | 18 kts | 215° |
| 2026-04-24 05:32 | 20.89325 | -156.43488 | 47 ft | 27 kts | 215° |
| 2026-04-24 05:33 | 20.89163 | -156.43609 | 44 ft | 28 kts | 215° |
| 2026-04-24 05:33 | 20.89049 | -156.43705 | 44 ft | 17 kts | 208° |
| 2026-04-24 05:33 | 20.89009 | -156.43709 | 47 ft | 0 kts | 165° |
| 2026-04-24 05:34 | 20.88987 | -156.43695 | 45 ft | 7 kts | 144° |
| 2026-04-24 05:34 | 20.88945 | -156.43646 | 44 ft | 9 kts | 122° |
| 2026-04-24 05:35 | 20.88957 | -156.43602 | 43 ft | 6 kts | 48° |
| 2026-04-24 05:35 | 20.88965 | -156.43596 | 46 ft | 0 kts | 34° |
| 2026-04-24 05:35 | 20.89080 | -156.43511 | 47 ft | 56 kts | 34° |
| 2026-04-24 05:36 | 20.89602 | -156.43126 | 48 ft | 125 kts | 34° |
| 2026-04-24 05:36 | 20.90465 | -156.42475 | 214 ft | 165 kts | 37° |
| 2026-04-24 05:36 | 20.91438 | -156.41759 | 884 ft | 178 kts | 34° |
| 2026-04-24 05:36 | 20.92515 | -156.41012 | 1679 ft | 187 kts | 32° |
| 2026-04-24 05:37 | 20.93465 | -156.40036 | 2412 ft | 196 kts | 58° |
| 2026-04-24 05:37 | 20.93801 | -156.38611 | 3094 ft | 207 kts | 87° |
| 2026-04-24 05:37 | 20.93501 | -156.37061 | 3779 ft | 220 kts | 104° |
| 2026-04-24 05:37 | 20.92942 | -156.35489 | 4502 ft | 231 kts | 108° |
| 2026-04-24 05:38 | 20.92370 | -156.33842 | 5145 ft | 243 kts | 107° |
| 2026-04-24 05:38 | 20.91826 | -156.32095 | 5734 ft | 256 kts | 105° |
| 2026-04-24 05:38 | 20.91273 | -156.30231 | 6326 ft | 269 kts | 106° |
| 2026-04-24 05:38 | 20.90718 | -156.28280 | 6902 ft | 281 kts | 105° |
| 2026-04-24 05:39 | 20.90132 | -156.26193 | 6966 ft | 303 kts | 105° |
| 2026-04-24 05:39 | 20.89529 | -156.24036 | 7200 ft | 309 kts | 104° |
| 2026-04-24 05:39 | 20.88885 | -156.21758 | 7749 ft | 328 kts | 105° |
| 2026-04-24 05:39 | 20.88206 | -156.19373 | 8490 ft | 342 kts | 104° |
| 2026-04-24 05:40 | 20.87737 | -156.16849 | 9252 ft | 351 kts | 94° |
| 2026-04-24 05:40 | 20.87568 | -156.14246 | 10020 ft | 360 kts | 91° |
| 2026-04-24 05:40 | 20.87467 | -156.11530 | 10732 ft | 369 kts | 91° |
| 2026-04-24 05:40 | 20.87238 | -156.08754 | 11474 ft | 378 kts | 95° |
| 2026-04-24 05:41 | 20.86897 | -156.05938 | 12238 ft | 385 kts | 95° |
| 2026-04-24 05:41 | 20.86587 | -156.03064 | 13017 ft | 392 kts | 93° |
| 2026-04-24 05:41 | 20.86380 | -156.00136 | 13816 ft | 396 kts | 88° |
| 2026-04-24 05:41 | 20.86374 | -155.97177 | 14538 ft | 401 kts | 88° |
| 2026-04-24 05:42 | 20.86322 | -155.94164 | 15269 ft | 407 kts | 89° |
| 2026-04-24 05:42 | 20.86260 | -155.91120 | 16021 ft | 412 kts | 89° |
| 2026-04-24 05:42 | 20.86216 | -155.88085 | 16770 ft | 415 kts | 89° |
| 2026-04-24 05:42 | 20.86176 | -155.84948 | 17553 ft | 418 kts | 89° |
| 2026-04-24 05:43 | 20.86129 | -155.81868 | 18338 ft | 421 kts | 89° |
| 2026-04-24 05:43 | 20.86077 | -155.78733 | 19035 ft | 423 kts | 89° |
| 2026-04-24 05:43 | 20.86026 | -155.75588 | 19740 ft | 424 kts | 89° |
| 2026-04-24 05:43 | 20.85977 | -155.72426 | 20451 ft | 426 kts | 89° |
| 2026-04-24 05:44 | 20.85927 | -155.69261 | 21189 ft | 426 kts | 89° |
| 2026-04-24 05:44 | 20.85874 | -155.66089 | 21937 ft | 426 kts | 89° |
| 2026-04-24 05:44 | 20.85822 | -155.62919 | 22704 ft | 426 kts | 90° |
| 2026-04-24 05:44 | 20.85769 | -155.59755 | 23490 ft | 425 kts | 90° |
| 2026-04-24 05:45 | 20.85716 | -155.56601 | 24181 ft | 423 kts | 90° |
| 2026-04-24 05:45 | 20.85663 | -155.53468 | 24848 ft | 421 kts | 90° |
| 2026-04-24 05:45 | 20.85609 | -155.50333 | 25536 ft | 418 kts | 90° |
| 2026-04-24 05:45 | 20.85555 | -155.47276 | 26215 ft | 415 kts | 90° |
| 2026-04-24 05:46 | 20.85501 | -155.44194 | 26932 ft | 412 kts | 90° |
| 2026-04-24 05:46 | 20.85447 | -155.41149 | 27654 ft | 407 kts | 90° |
| 2026-04-24 05:46 | 20.85393 | -155.38140 | 28388 ft | 402 kts | 89° |
| 2026-04-24 05:46 | 20.85339 | -155.35177 | 29130 ft | 396 kts | 89° |
| 2026-04-24 05:47 | 20.85286 | -155.32250 | 29780 ft | 394 kts | 89° |
| 2026-04-24 05:47 | 20.85232 | -155.29314 | 30161 ft | 397 kts | 89° |
| 2026-04-24 05:47 | 20.85178 | -155.26354 | 30512 ft | 399 kts | 89° |
| 2026-04-24 05:47 | 20.85121 | -155.23383 | 30871 ft | 401 kts | 90° |
| 2026-04-24 05:48 | 20.85064 | -155.20399 | 31239 ft | 402 kts | 90° |
| 2026-04-24 05:48 | 20.85007 | -155.17410 | 31590 ft | 403 kts | 90° |
| 2026-04-24 05:48 | 20.84949 | -155.14399 | 31906 ft | 406 kts | 90° |
| 2026-04-24 05:48 | 20.84890 | -155.11373 | 32220 ft | 408 kts | 90° |
| 2026-04-24 05:49 | 20.84831 | -155.08372 | 32542 ft | 409 kts | 90° |
| 2026-04-24 05:49 | 20.84771 | -155.05323 | 32884 ft | 411 kts | 90° |
| 2026-04-24 05:49 | 20.84709 | -155.02270 | 33211 ft | 411 kts | 90° |
| 2026-04-24 05:49 | 20.84648 | -154.99210 | 33550 ft | 412 kts | 90° |
| 2026-04-24 05:50 | 20.84586 | -154.96150 | 33889 ft | 412 kts | 90° |
| 2026-04-24 05:50 | 20.84522 | -154.93085 | 34200 ft | 412 kts | 90° |
| 2026-04-24 05:50 | 20.84459 | -154.90024 | 34491 ft | 411 kts | 90° |
| 2026-04-24 05:50 | 20.84395 | -154.86980 | 34778 ft | 410 kts | 90° |
| 2026-04-24 05:51 | 20.84331 | -154.83935 | 35067 ft | 408 kts | 90° |
| 2026-04-24 05:51 | 20.84267 | -154.80911 | 35363 ft | 406 kts | 90° |
| 2026-04-24 05:51 | 20.84202 | -154.77901 | 35627 ft | 404 kts | 90° |
| 2026-04-24 05:51 | 20.84137 | -154.74873 | 35656 ft | 410 kts | 90° |
| 2026-04-24 05:52 | 20.84003 | -154.68741 | 35802 ft | 420 kts | 90° |
| 2026-04-24 05:52 | 20.83862 | -154.62432 | 35991 ft | 429 kts | 90° |
| 2026-04-24 05:53 | 20.83790 | -154.59230 | 36097 ft | 433 kts | 90° |
| 2026-04-24 05:53 | 20.83742 | -154.57093 | 36159 ft | 436 kts | 90° |
| 2026-04-24 05:53 | 20.83667 | -154.53829 | 36265 ft | 441 kts | 90° |
| 2026-04-24 05:53 | 20.83592 | -154.50536 | 36378 ft | 445 kts | 90° |
| 2026-04-24 05:54 | 20.83514 | -154.47209 | 36482 ft | 450 kts | 90° |
| 2026-04-24 05:54 | 20.83436 | -154.43849 | 36593 ft | 454 kts | 90° |
| 2026-04-24 05:54 | 20.83356 | -154.40460 | 36699 ft | 458 kts | 90° |
| 2026-04-24 05:54 | 20.83274 | -154.37037 | 36807 ft | 463 kts | 91° |
| 2026-04-24 05:55 | 20.83191 | -154.33579 | 36912 ft | 467 kts | 91° |
| 2026-04-24 05:55 | 20.83106 | -154.30077 | 37026 ft | 472 kts | 91° |
| 2026-04-24 05:55 | 20.83020 | -154.26553 | 37136 ft | 476 kts | 91° |
| 2026-04-24 05:55 | 20.82933 | -154.22998 | 37240 ft | 481 kts | 91° |
| 2026-04-24 05:56 | 20.82844 | -154.19408 | 37343 ft | 485 kts | 91° |
| 2026-04-24 05:56 | 20.82754 | -154.15831 | 37448 ft | 489 kts | 91° |
| 2026-04-24 05:56 | 20.82662 | -154.12179 | 37554 ft | 494 kts | 91° |
| 2026-04-24 05:56 | 20.82569 | -154.08500 | 37659 ft | 498 kts | 91° |
| 2026-04-24 05:57 | 20.82473 | -154.04784 | 37775 ft | 502 kts | 91° |
| 2026-04-24 05:57 | 20.82376 | -154.01033 | 37867 ft | 506 kts | 91° |
| 2026-04-24 05:57 | 20.82278 | -153.97261 | 37970 ft | 510 kts | 91° |
| 2026-04-24 05:57 | 20.82178 | -153.93459 | 38073 ft | 514 kts | 91° |
| 2026-04-24 05:58 | 20.82076 | -153.89622 | 38175 ft | 517 kts | 91° |
| 2026-04-24 05:58 | 20.81973 | -153.85769 | 38307 ft | 520 kts | 91° |
| 2026-04-24 05:58 | 20.81869 | -153.81939 | 38455 ft | 523 kts | 91° |
| 2026-04-24 05:58 | 20.81763 | -153.78037 | 38605 ft | 525 kts | 91° |
| 2026-04-24 05:59 | 20.81656 | -153.74132 | 38757 ft | 527 kts | 91° |
| 2026-04-24 05:59 | 20.81547 | -153.70206 | 38888 ft | 529 kts | 91° |
| 2026-04-24 05:59 | 20.81438 | -153.66265 | 39018 ft | 531 kts | 91° |
| 2026-04-24 05:59 | 20.81326 | -153.62313 | 39126 ft | 533 kts | 91° |
| 2026-04-24 06:00 | 20.81099 | -153.54308 | 39132 ft | 543 kts | 91° |
| 2026-04-24 06:00 | 20.80863 | -153.46160 | 39134 ft | 552 kts | 91° |
| 2026-04-24 06:01 | 20.80620 | -153.37921 | 39129 ft | 555 kts | 91° |
| 2026-04-24 06:01 | 20.80376 | -153.29746 | 39124 ft | 553 kts | 91° |
| 2026-04-24 06:02 | 20.80127 | -153.21545 | 39123 ft | 552 kts | 91° |
| 2026-04-24 06:02 | 20.79874 | -153.13351 | 39122 ft | 550 kts | 91° |
| 2026-04-24 06:03 | 20.79618 | -153.05164 | 39122 ft | 552 kts | 90° |
| 2026-04-24 06:03 | 20.79802 | -153.01079 | 39145 ft | 550 kts | 78° |
| 2026-04-24 06:03 | 20.80666 | -152.97099 | 39145 ft | 547 kts | 68° |
| 2026-04-24 06:04 | 20.83487 | -152.89525 | 39121 ft | 549 kts | 64° |
| 2026-04-24 06:04 | 20.86375 | -152.82033 | 39120 ft | 549 kts | 65° |
| 2026-04-24 06:05 | 20.89255 | -152.74468 | 39125 ft | 549 kts | 65° |
| 2026-04-24 06:05 | 20.92157 | -152.66883 | 39124 ft | 550 kts | 65° |
| 2026-04-24 06:06 | 20.95041 | -152.59303 | 39121 ft | 550 kts | 65° |
| 2026-04-24 06:06 | 20.97932 | -152.51713 | 39122 ft | 551 kts | 65° |
| 2026-04-24 06:07 | 21.00818 | -152.44113 | 39124 ft | 550 kts | 65° |
| 2026-04-24 06:07 | 21.03679 | -152.36573 | 39113 ft | 551 kts | 65° |
| 2026-04-24 06:08 | 21.06572 | -152.28933 | 39112 ft | 551 kts | 65° |
| 2026-04-24 06:08 | 21.09450 | -152.21320 | 39117 ft | 552 kts | 65° |
| 2026-04-24 06:09 | 21.12317 | -152.13727 | 39114 ft | 553 kts | 65° |
| 2026-04-24 06:09 | 21.15200 | -152.06079 | 39118 ft | 554 kts | 65° |
| 2026-04-24 06:10 | 21.18078 | -151.98431 | 39120 ft | 552 kts | 65° |
| 2026-04-24 06:11 | 21.22378 | -151.86985 | 39113 ft | 553 kts | 65° |
| 2026-04-24 06:11 | 21.25251 | -151.79321 | 39114 ft | 555 kts | 65° |
| 2026-04-24 06:12 | 21.28112 | -151.71675 | 39124 ft | 555 kts | 65° |
| 2026-04-24 06:12 | 21.30992 | -151.63969 | 39120 ft | 555 kts | 65° |
| 2026-04-24 06:13 | 21.33863 | -151.56272 | 39117 ft | 555 kts | 65° |
| 2026-04-24 06:13 | 21.36731 | -151.48573 | 39116 ft | 555 kts | 65° |
| 2026-04-24 06:14 | 21.39575 | -151.40924 | 39116 ft | 555 kts | 65° |
| 2026-04-24 06:14 | 21.42439 | -151.33212 | 39113 ft | 556 kts | 65° |
| 2026-04-24 06:15 | 21.45307 | -151.25475 | 39116 ft | 558 kts | 65° |
| 2026-04-24 06:15 | 21.48177 | -151.17719 | 39116 ft | 559 kts | 65° |
| 2026-04-24 06:16 | 21.51040 | -151.09968 | 39114 ft | 557 kts | 65° |
| 2026-04-24 06:16 | 21.53877 | -151.02277 | 39116 ft | 556 kts | 65° |
| 2026-04-24 06:17 | 21.56728 | -150.94536 | 39112 ft | 558 kts | 65° |
| 2026-04-24 06:17 | 21.59579 | -150.86779 | 39115 ft | 559 kts | 65° |
| 2026-04-24 06:18 | 21.62437 | -150.78994 | 39109 ft | 560 kts | 65° |
| 2026-04-24 06:18 | 21.65273 | -150.71253 | 39117 ft | 560 kts | 65° |
| 2026-04-24 06:19 | 21.68124 | -150.63460 | 39111 ft | 560 kts | 65° |
| 2026-04-24 06:19 | 21.70974 | -150.55654 | 39116 ft | 560 kts | 65° |
| 2026-04-24 06:20 | 21.73820 | -150.47850 | 39116 ft | 561 kts | 65° |
| 2026-04-24 06:20 | 21.76665 | -150.40032 | 39116 ft | 561 kts | 65° |
| 2026-04-24 06:21 | 21.79513 | -150.32196 | 39108 ft | 563 kts | 65° |
| 2026-04-24 06:21 | 21.82357 | -150.24355 | 39109 ft | 562 kts | 65° |
| 2026-04-24 06:22 | 21.85174 | -150.16575 | 39117 ft | 561 kts | 65° |
| 2026-04-24 06:22 | 21.88009 | -150.08734 | 39115 ft | 562 kts | 65° |
| 2026-04-24 06:23 | 21.90841 | -150.00885 | 39112 ft | 563 kts | 65° |
| 2026-04-24 06:23 | 21.93678 | -149.93013 | 39117 ft | 563 kts | 65° |
| 2026-04-24 06:24 | 21.96506 | -149.85149 | 39112 ft | 563 kts | 65° |
| 2026-04-24 06:24 | 21.99315 | -149.77324 | 39110 ft | 563 kts | 65° |
| 2026-04-24 06:25 | 22.02138 | -149.69448 | 39112 ft | 561 kts | 65° |
| 2026-04-24 06:25 | 22.04943 | -149.61609 | 39102 ft | 560 kts | 65° |
| 2026-04-24 06:26 | 22.07734 | -149.53797 | 39102 ft | 562 kts | 66° |
| 2026-04-24 06:26 | 22.10552 | -149.45893 | 39109 ft | 563 kts | 66° |
| 2026-04-24 06:27 | 22.13362 | -149.37997 | 39113 ft | 564 kts | 66° |
| 2026-04-24 06:27 | 22.16155 | -149.30136 | 39109 ft | 564 kts | 66° |
| 2026-04-24 06:28 | 22.18962 | -149.22224 | 39106 ft | 565 kts | 66° |
| 2026-04-24 06:28 | 22.21775 | -149.14279 | 39106 ft | 566 kts | 66° |
| 2026-04-24 06:29 | 22.24575 | -149.06355 | 39110 ft | 564 kts | 66° |
| 2026-04-24 06:29 | 22.27368 | -148.98442 | 39097 ft | 563 kts | 66° |
| 2026-04-24 06:30 | 22.30136 | -148.90582 | 39098 ft | 563 kts | 66° |
| 2026-04-24 06:30 | 22.32922 | -148.82658 | 39122 ft | 563 kts | 66° |
| 2026-04-24 06:31 | 22.35700 | -148.74740 | 39110 ft | 563 kts | 66° |
| 2026-04-24 06:31 | 22.38474 | -148.66824 | 39108 ft | 562 kts | 66° |
| 2026-04-24 06:32 | 22.41219 | -148.58974 | 39103 ft | 562 kts | 66° |
| 2026-04-24 06:32 | 22.43985 | -148.51050 | 39106 ft | 564 kts | 66° |
| 2026-04-24 06:33 | 22.46758 | -148.43093 | 39110 ft | 565 kts | 66° |
| 2026-04-24 06:33 | 22.49531 | -148.35120 | 39113 ft | 566 kts | 66° |
| 2026-04-24 06:34 | 22.52298 | -148.27149 | 39106 ft | 564 kts | 66° |
| 2026-04-24 06:34 | 22.55036 | -148.19249 | 39102 ft | 563 kts | 66° |
| 2026-04-24 06:35 | 22.57782 | -148.11310 | 39098 ft | 564 kts | 66° |
| 2026-04-24 06:35 | 22.60534 | -148.03340 | 39098 ft | 564 kts | 66° |
| 2026-04-24 06:36 | 22.63266 | -147.95416 | 39104 ft | 564 kts | 66° |
| 2026-04-24 06:36 | 22.66008 | -147.87446 | 39105 ft | 565 kts | 66° |
| 2026-04-24 06:37 | 22.68752 | -147.79454 | 39101 ft | 565 kts | 66° |
| 2026-04-24 06:37 | 22.71471 | -147.71521 | 39103 ft | 564 kts | 66° |
| 2026-04-24 06:38 | 22.74201 | -147.63544 | 39109 ft | 563 kts | 66° |
| 2026-04-24 06:38 | 22.76923 | -147.55573 | 39106 ft | 565 kts | 66° |
| 2026-04-24 06:39 | 22.79652 | -147.47567 | 39110 ft | 567 kts | 66° |
| 2026-04-24 06:39 | 22.82379 | -147.39551 | 39108 ft | 566 kts | 66° |
| 2026-04-24 06:40 | 22.85101 | -147.31537 | 39104 ft | 566 kts | 67° |
| 2026-04-24 06:40 | 22.87799 | -147.23579 | 39103 ft | 566 kts | 67° |
| 2026-04-24 06:41 | 22.90510 | -147.15566 | 39101 ft | 566 kts | 67° |
| 2026-04-24 06:41 | 22.93217 | -147.07550 | 39095 ft | 566 kts | 67° |
| 2026-04-24 06:42 | 22.95473 | -147.00858 | 39098 ft | 566 kts | 67° |
| 2026-04-24 06:42 | 22.98614 | -146.91521 | 39099 ft | 566 kts | 67° |
| 2026-04-24 06:43 | 23.00875 | -146.84789 | 39101 ft | 566 kts | 67° |
| 2026-04-24 06:43 | 23.03552 | -146.76804 | 39095 ft | 565 kts | 67° |
| 2026-04-24 06:44 | 23.06244 | -146.68761 | 39094 ft | 565 kts | 67° |
| 2026-04-24 06:44 | 23.08922 | -146.60742 | 39093 ft | 565 kts | 67° |
| 2026-04-24 06:45 | 23.11598 | -146.52715 | 39089 ft | 565 kts | 67° |
| 2026-04-24 06:45 | 23.14280 | -146.44654 | 39093 ft | 567 kts | 67° |
| 2026-04-24 06:46 | 23.16943 | -146.36633 | 39104 ft | 568 kts | 67° |
| 2026-04-24 06:46 | 23.19612 | -146.28581 | 39100 ft | 565 kts | 67° |
| 2026-04-24 06:47 | 23.22277 | -146.20526 | 39095 ft | 566 kts | 68° |
| 2026-04-24 06:47 | 23.24943 | -146.12449 | 39098 ft | 568 kts | 68° |
| 2026-04-24 06:48 | 23.27600 | -146.04385 | 39103 ft | 569 kts | 68° |
| 2026-04-24 06:48 | 23.30267 | -145.96275 | 39107 ft | 568 kts | 68° |
| 2026-04-24 06:49 | 23.32920 | -145.88191 | 39107 ft | 565 kts | 68° |
| 2026-04-24 06:49 | 23.35555 | -145.80147 | 39101 ft | 564 kts | 68° |
| 2026-04-24 06:50 | 23.38192 | -145.72083 | 39101 ft | 566 kts | 68° |
| 2026-04-24 06:50 | 23.40814 | -145.64046 | 39102 ft | 567 kts | 68° |
| 2026-04-24 06:51 | 23.43455 | -145.55937 | 39102 ft | 567 kts | 68° |
| 2026-04-24 06:51 | 23.46095 | -145.47813 | 39127 ft | 568 kts | 68° |
| 2026-04-24 06:52 | 23.48707 | -145.39758 | 39100 ft | 566 kts | 68° |
| 2026-04-24 06:52 | 23.51328 | -145.31664 | 39103 ft | 565 kts | 68° |
| 2026-04-24 06:53 | 23.53936 | -145.23592 | 39098 ft | 565 kts | 68° |
| 2026-04-24 06:53 | 23.56549 | -145.15486 | 39094 ft | 567 kts | 68° |
| 2026-04-24 06:54 | 23.59169 | -145.07343 | 39109 ft | 569 kts | 68° |
| 2026-04-24 06:54 | 23.61780 | -144.99212 | 39099 ft | 568 kts | 68° |
| 2026-04-24 06:55 | 23.64371 | -144.91127 | 39101 ft | 566 kts | 68° |
| 2026-04-24 06:55 | 23.66970 | -144.83001 | 39098 ft | 566 kts | 68° |
| 2026-04-24 06:56 | 23.69547 | -144.74929 | 39095 ft | 566 kts | 69° |
| 2026-04-24 06:56 | 23.72135 | -144.66805 | 39099 ft | 568 kts | 69° |
| 2026-04-24 06:57 | 23.74734 | -144.58628 | 39101 ft | 570 kts | 69° |
| 2026-04-24 06:57 | 23.77325 | -144.50458 | 39099 ft | 569 kts | 69° |
| 2026-04-24 06:58 | 23.79911 | -144.42291 | 39098 ft | 569 kts | 69° |
| 2026-04-24 06:58 | 23.82478 | -144.34165 | 39102 ft | 570 kts | 69° |
| 2026-04-24 06:59 | 23.85068 | -144.25953 | 39100 ft | 571 kts | 69° |
| 2026-04-24 06:59 | 23.87653 | -144.17735 | 39104 ft | 572 kts | 69° |
| 2026-04-24 07:00 | 23.90234 | -144.09516 | 39103 ft | 571 kts | 69° |
| 2026-04-24 07:00 | 23.92803 | -144.01313 | 39105 ft | 570 kts | 69° |
| 2026-04-24 07:01 | 23.95353 | -143.93157 | 39099 ft | 570 kts | 69° |
| 2026-04-24 07:01 | 23.97918 | -143.84939 | 39098 ft | 570 kts | 69° |
| 2026-04-24 07:02 | 24.00477 | -143.76720 | 39101 ft | 570 kts | 69° |
| 2026-04-24 07:02 | 24.03014 | -143.68551 | 39099 ft | 570 kts | 70° |
| 2026-04-24 07:03 | 24.05567 | -143.60320 | 39104 ft | 570 kts | 70° |
| 2026-04-24 07:03 | 24.08106 | -143.52110 | 39104 ft | 568 kts | 70° |
| 2026-04-24 07:04 | 24.10637 | -143.43914 | 39102 ft | 569 kts | 70° |
| 2026-04-24 07:04 | 24.13172 | -143.35686 | 39104 ft | 570 kts | 70° |
| 2026-04-24 07:05 | 24.15694 | -143.27481 | 39108 ft | 571 kts | 70° |
| 2026-04-24 07:05 | 24.18227 | -143.19225 | 39107 ft | 571 kts | 70° |
| 2026-04-24 07:06 | 24.20749 | -143.10984 | 39104 ft | 569 kts | 70° |
| 2026-04-24 07:06 | 24.23245 | -143.02814 | 39100 ft | 568 kts | 70° |
| 2026-04-24 07:07 | 24.25755 | -142.94578 | 39102 ft | 570 kts | 70° |
| 2026-04-24 07:07 | 24.29524 | -142.82176 | 39111 ft | 572 kts | 70° |
| 2026-04-24 07:08 | 24.32033 | -142.73899 | 39100 ft | 569 kts | 70° |
| 2026-04-24 07:08 | 24.34529 | -142.65651 | 39098 ft | 570 kts | 70° |
| 2026-04-24 07:09 | 24.37005 | -142.57446 | 39098 ft | 570 kts | 70° |
| 2026-04-24 07:09 | 24.39495 | -142.49177 | 39102 ft | 571 kts | 70° |
| 2026-04-24 07:10 | 24.41990 | -142.40874 | 39105 ft | 572 kts | 70° |
| 2026-04-24 07:10 | 24.44482 | -142.32560 | 39108 ft | 572 kts | 71° |
| 2026-04-24 07:11 | 24.46939 | -142.24349 | 39097 ft | 570 kts | 71° |
| 2026-04-24 07:11 | 24.49407 | -142.16080 | 39095 ft | 570 kts | 71° |
| 2026-04-24 07:12 | 24.51871 | -142.07807 | 39099 ft | 570 kts | 71° |
| 2026-04-24 07:12 | 24.54337 | -141.99512 | 39100 ft | 571 kts | 71° |
| 2026-04-24 07:13 | 24.56804 | -141.91191 | 39110 ft | 573 kts | 71° |
| 2026-04-24 07:13 | 24.59266 | -141.82869 | 39108 ft | 570 kts | 71° |
| 2026-04-24 07:14 | 24.61697 | -141.74635 | 39095 ft | 570 kts | 71° |
| 2026-04-24 07:14 | 24.64148 | -141.66311 | 39099 ft | 574 kts | 71° |
| 2026-04-24 07:15 | 24.66603 | -141.57958 | 39104 ft | 573 kts | 71° |
| 2026-04-24 07:15 | 24.69047 | -141.49620 | 39108 ft | 572 kts | 71° |
| 2026-04-24 07:16 | 24.71484 | -141.41291 | 39108 ft | 570 kts | 71° |
| 2026-04-24 07:16 | 24.73905 | -141.32995 | 39097 ft | 570 kts | 71° |
| 2026-04-24 07:17 | 24.76313 | -141.24725 | 39103 ft | 572 kts | 71° |
| 2026-04-24 07:17 | 24.78741 | -141.16368 | 39106 ft | 573 kts | 71° |
| 2026-04-24 07:18 | 24.81165 | -141.08007 | 39116 ft | 573 kts | 71° |
| 2026-04-24 07:18 | 24.83576 | -140.99670 | 39114 ft | 570 kts | 72° |
| 2026-04-24 07:19 | 24.85977 | -140.91350 | 39115 ft | 570 kts | 72° |
| 2026-04-24 07:19 | 24.88375 | -140.83017 | 39106 ft | 571 kts | 72° |
| 2026-04-24 07:20 | 24.90765 | -140.74694 | 39104 ft | 573 kts | 72° |
| 2026-04-24 07:20 | 24.93168 | -140.66309 | 39115 ft | 572 kts | 72° |
| 2026-04-24 07:21 | 24.95553 | -140.57968 | 39114 ft | 571 kts | 72° |
| 2026-04-24 07:21 | 24.97947 | -140.49571 | 39115 ft | 574 kts | 72° |
| 2026-04-24 07:22 | 25.00334 | -140.41181 | 39105 ft | 573 kts | 72° |
| 2026-04-24 07:22 | 25.02700 | -140.32846 | 39105 ft | 574 kts | 72° |
| 2026-04-24 07:23 | 25.05083 | -140.24433 | 39110 ft | 574 kts | 72° |
| 2026-04-24 07:23 | 25.07458 | -140.16024 | 39110 ft | 574 kts | 72° |
| 2026-04-24 07:24 | 25.09833 | -140.07599 | 39104 ft | 575 kts | 72° |
| 2026-04-24 07:24 | 25.12204 | -139.99164 | 39103 ft | 574 kts | 72° |
| 2026-04-24 07:25 | 25.14550 | -139.90802 | 39130 ft | 574 kts | 72° |
| 2026-04-24 07:25 | 25.16908 | -139.82376 | 39117 ft | 573 kts | 72° |
| 2026-04-24 07:26 | 25.19256 | -139.73960 | 39109 ft | 573 kts | 72° |
| 2026-04-24 07:26 | 25.21606 | -139.65525 | 39111 ft | 575 kts | 72° |
| 2026-04-24 07:27 | 25.23937 | -139.57133 | 39112 ft | 575 kts | 72° |
| 2026-04-24 07:27 | 25.26281 | -139.48673 | 39127 ft | 576 kts | 72° |
| 2026-04-24 07:28 | 25.28621 | -139.40208 | 39128 ft | 575 kts | 72° |
| 2026-04-24 07:28 | 25.30955 | -139.31745 | 39129 ft | 574 kts | 72° |
| 2026-04-24 07:29 | 25.33266 | -139.23346 | 39116 ft | 575 kts | 72° |
| 2026-04-24 07:29 | 25.35594 | -139.14861 | 39124 ft | 577 kts | 72° |
| 2026-04-24 07:30 | 25.37532 | -139.07783 | 39119 ft | 576 kts | 73° |
| 2026-04-24 07:30 | 25.39849 | -138.99301 | 39123 ft | 575 kts | 73° |
| 2026-04-24 07:31 | 25.42533 | -138.89449 | 39120 ft | 575 kts | 73° |
| 2026-04-24 07:31 | 25.44464 | -138.82344 | 39120 ft | 575 kts | 73° |
| 2026-04-24 07:32 | 25.46765 | -138.73857 | 39142 ft | 576 kts | 73° |
| 2026-04-24 07:32 | 25.49046 | -138.65425 | 39138 ft | 575 kts | 73° |
| 2026-04-24 07:33 | 25.51341 | -138.56917 | 39134 ft | 577 kts | 73° |
| 2026-04-24 07:33 | 25.53635 | -138.48395 | 39139 ft | 579 kts | 73° |
| 2026-04-24 07:34 | 25.55930 | -138.39844 | 39135 ft | 578 kts | 73° |
| 2026-04-24 07:34 | 25.58201 | -138.31362 | 39144 ft | 577 kts | 73° |
| 2026-04-24 07:35 | 25.60476 | -138.22841 | 39139 ft | 577 kts | 73° |
| 2026-04-24 07:35 | 25.62746 | -138.14321 | 39137 ft | 577 kts | 73° |
| 2026-04-24 07:36 | 25.65016 | -138.05776 | 39136 ft | 576 kts | 73° |
| 2026-04-24 07:36 | 25.67277 | -137.97247 | 39145 ft | 577 kts | 73° |
| 2026-04-24 07:37 | 25.69535 | -137.88702 | 39150 ft | 578 kts | 73° |
| 2026-04-24 07:37 | 25.71792 | -137.80143 | 39142 ft | 578 kts | 73° |
| 2026-04-24 07:38 | 25.74037 | -137.71608 | 39144 ft | 581 kts | 73° |
| 2026-04-24 07:38 | 25.76293 | -137.63006 | 39147 ft | 580 kts | 73° |
| 2026-04-24 07:39 | 25.78538 | -137.54419 | 39143 ft | 578 kts | 73° |
| 2026-04-24 07:39 | 25.80771 | -137.45866 | 39145 ft | 577 kts | 73° |
| 2026-04-24 07:40 | 25.82997 | -137.37310 | 39139 ft | 577 kts | 73° |
| 2026-04-24 07:40 | 25.85216 | -137.28761 | 39147 ft | 576 kts | 73° |
| 2026-04-24 07:41 | 25.87418 | -137.20256 | 39155 ft | 576 kts | 74° |
| 2026-04-24 07:41 | 25.89626 | -137.11703 | 39152 ft | 575 kts | 73° |
| 2026-04-24 07:42 | 25.91825 | -137.03164 | 39152 ft | 575 kts | 74° |
| 2026-04-24 07:42 | 25.94022 | -136.94607 | 39153 ft | 574 kts | 73° |
| 2026-04-24 07:43 | 25.96213 | -136.86057 | 39161 ft | 577 kts | 74° |
| 2026-04-24 07:43 | 25.98403 | -136.77481 | 39166 ft | 577 kts | 74° |
| 2026-04-24 07:44 | 26.00575 | -136.68957 | 39163 ft | 576 kts | 74° |
| 2026-04-24 07:44 | 26.02755 | -136.60376 | 39166 ft | 576 kts | 74° |
| 2026-04-24 07:45 | 26.04932 | -136.51784 | 39157 ft | 576 kts | 74° |
| 2026-04-24 07:45 | 26.07102 | -136.43199 | 39156 ft | 576 kts | 74° |
| 2026-04-24 07:46 | 26.09250 | -136.34674 | 39156 ft | 575 kts | 74° |
| 2026-04-24 07:46 | 26.11406 | -136.26099 | 39159 ft | 576 kts | 74° |
| 2026-04-24 07:47 | 26.13564 | -136.17491 | 39190 ft | 576 kts | 74° |
| 2026-04-24 07:47 | 26.15713 | -136.08893 | 39165 ft | 576 kts | 74° |
| 2026-04-24 07:48 | 26.17856 | -136.00296 | 39168 ft | 575 kts | 74° |
| 2026-04-24 07:48 | 26.19975 | -135.91772 | 39158 ft | 575 kts | 74° |
| 2026-04-24 07:49 | 26.22104 | -135.83188 | 39162 ft | 574 kts | 74° |
| 2026-04-24 07:49 | 26.24228 | -135.74594 | 39168 ft | 575 kts | 74° |
| 2026-04-24 07:50 | 26.26354 | -135.65973 | 39168 ft | 576 kts | 74° |
| 2026-04-24 07:50 | 26.28459 | -135.57412 | 39168 ft | 576 kts | 74° |
| 2026-04-24 07:51 | 26.30570 | -135.48803 | 39171 ft | 576 kts | 75° |
| 2026-04-24 07:51 | 26.32679 | -135.40177 | 39171 ft | 575 kts | 75° |
| 2026-04-24 07:52 | 26.34779 | -135.31565 | 39166 ft | 574 kts | 75° |
| 2026-04-24 07:52 | 26.36850 | -135.23048 | 39162 ft | 573 kts | 75° |
| 2026-04-24 07:53 | 26.38933 | -135.14453 | 39165 ft | 574 kts | 75° |
| 2026-04-24 07:53 | 26.41016 | -135.05838 | 39176 ft | 576 kts | 75° |
| 2026-04-24 07:54 | 26.43105 | -134.97176 | 39174 ft | 577 kts | 75° |
| 2026-04-24 07:54 | 26.45168 | -134.88594 | 39179 ft | 575 kts | 75° |
| 2026-04-24 07:55 | 26.47237 | -134.79964 | 39181 ft | 574 kts | 75° |
| 2026-04-24 07:55 | 26.49296 | -134.71349 | 39180 ft | 574 kts | 75° |
| 2026-04-24 07:56 | 26.51348 | -134.62739 | 39180 ft | 573 kts | 75° |
| 2026-04-24 07:56 | 26.53382 | -134.54177 | 39175 ft | 575 kts | 75° |
| 2026-04-24 07:57 | 26.55433 | -134.45523 | 39188 ft | 576 kts | 75° |
| 2026-04-24 07:57 | 26.57483 | -134.36848 | 39171 ft | 576 kts | 75° |
| 2026-04-24 07:58 | 26.59507 | -134.28258 | 39166 ft | 573 kts | 75° |
| 2026-04-24 07:58 | 26.61529 | -134.19651 | 39179 ft | 572 kts | 75° |
| 2026-04-24 07:59 | 26.63551 | -134.11017 | 39175 ft | 574 kts | 75° |
| 2026-04-24 07:59 | 26.65570 | -134.02372 | 39187 ft | 575 kts | 75° |
| 2026-04-24 08:00 | 26.67579 | -133.93743 | 39188 ft | 575 kts | 76° |
| 2026-04-24 08:00 | 26.69593 | -133.85067 | 39186 ft | 574 kts | 76° |
| 2026-04-24 08:01 | 26.71590 | -133.76442 | 39190 ft | 571 kts | 76° |
| 2026-04-24 08:01 | 26.73566 | -133.67881 | 39189 ft | 571 kts | 76° |
| 2026-04-24 08:02 | 26.75548 | -133.59268 | 39190 ft | 571 kts | 76° |
| 2026-04-24 08:02 | 26.77523 | -133.50660 | 39195 ft | 571 kts | 76° |
| 2026-04-24 08:03 | 26.79495 | -133.42037 | 39195 ft | 570 kts | 76° |
| 2026-04-24 08:03 | 26.81453 | -133.33451 | 39194 ft | 568 kts | 76° |
| 2026-04-24 08:04 | 26.83396 | -133.24905 | 39199 ft | 570 kts | 76° |
| 2026-04-24 08:04 | 26.85348 | -133.16297 | 39191 ft | 570 kts | 76° |
| 2026-04-24 08:05 | 26.87290 | -133.07703 | 39187 ft | 568 kts | 76° |
| 2026-04-24 08:05 | 26.89224 | -132.99123 | 39196 ft | 567 kts | 76° |
| 2026-04-24 08:06 | 26.91151 | -132.90546 | 39181 ft | 568 kts | 76° |
| 2026-04-24 08:06 | 26.93067 | -132.81989 | 39190 ft | 571 kts | 76° |
| 2026-04-24 08:07 | 26.94993 | -132.73365 | 39190 ft | 570 kts | 76° |
| 2026-04-24 08:07 | 26.96912 | -132.64743 | 39190 ft | 569 kts | 76° |
| 2026-04-24 08:08 | 26.98826 | -132.56119 | 39193 ft | 568 kts | 76° |
| 2026-04-24 08:09 | 27.01662 | -132.43289 | 39198 ft | 567 kts | 76° |
| 2026-04-24 08:09 | 27.03558 | -132.34682 | 39197 ft | 568 kts | 76° |
| 2026-04-24 08:10 | 27.05451 | -132.26057 | 39201 ft | 569 kts | 76° |
| 2026-04-24 08:10 | 27.07338 | -132.17434 | 39205 ft | 569 kts | 77° |
| 2026-04-24 08:11 | 27.09209 | -132.08858 | 39203 ft | 568 kts | 77° |
| 2026-04-24 08:11 | 27.11082 | -132.00248 | 39204 ft | 568 kts | 77° |
| 2026-04-24 08:12 | 27.12950 | -131.91632 | 39203 ft | 567 kts | 77° |
| 2026-04-24 08:12 | 27.14808 | -131.83034 | 39204 ft | 566 kts | 77° |
| 2026-04-24 08:13 | 27.16658 | -131.74448 | 39201 ft | 566 kts | 77° |
| 2026-04-24 08:13 | 27.18514 | -131.65809 | 39204 ft | 568 kts | 77° |
| 2026-04-24 08:14 | 27.20351 | -131.57225 | 39202 ft | 569 kts | 77° |
| 2026-04-24 08:14 | 27.22196 | -131.48583 | 39204 ft | 568 kts | 77° |
| 2026-04-24 08:15 | 27.24031 | -131.39955 | 39192 ft | 566 kts | 77° |
| 2026-04-24 08:15 | 27.25856 | -131.31346 | 39198 ft | 566 kts | 77° |
| 2026-04-24 08:16 | 27.27678 | -131.22726 | 39191 ft | 568 kts | 77° |
| 2026-04-24 08:16 | 27.29198 | -131.15513 | 39199 ft | 569 kts | 77° |
| 2026-04-24 08:17 | 27.31314 | -131.05442 | 39206 ft | 568 kts | 77° |
| 2026-04-24 08:17 | 27.33121 | -130.96809 | 39207 ft | 567 kts | 77° |
| 2026-04-24 08:18 | 27.34628 | -130.89585 | 39194 ft | 565 kts | 77° |
| 2026-04-24 08:18 | 27.36411 | -130.81016 | 39196 ft | 565 kts | 77° |
| 2026-04-24 08:19 | 27.38200 | -130.72387 | 39192 ft | 567 kts | 77° |
| 2026-04-24 08:19 | 27.39989 | -130.63732 | 39194 ft | 568 kts | 77° |
| 2026-04-24 08:20 | 27.41778 | -130.55049 | 39203 ft | 569 kts | 77° |
| 2026-04-24 08:20 | 27.43546 | -130.46438 | 39207 ft | 568 kts | 77° |
| 2026-04-24 08:21 | 27.45323 | -130.37753 | 39209 ft | 568 kts | 77° |
| 2026-04-24 08:21 | 27.47090 | -130.29091 | 39211 ft | 567 kts | 78° |
| 2026-04-24 08:22 | 27.48854 | -130.20412 | 39206 ft | 568 kts | 78° |
| 2026-04-24 08:22 | 27.50601 | -130.11788 | 39209 ft | 568 kts | 78° |
| 2026-04-24 08:23 | 27.52360 | -130.03078 | 39206 ft | 569 kts | 78° |
| 2026-04-24 08:23 | 27.54112 | -129.94373 | 39202 ft | 570 kts | 78° |
| 2026-04-24 08:24 | 27.55858 | -129.85662 | 39198 ft | 568 kts | 78° |
| 2026-04-24 08:24 | 27.57585 | -129.77022 | 39189 ft | 568 kts | 78° |
| 2026-04-24 08:25 | 27.59316 | -129.68329 | 39187 ft | 567 kts | 78° |
| 2026-04-24 08:25 | 27.61043 | -129.59632 | 39187 ft | 567 kts | 78° |
| 2026-04-24 08:26 | 27.62749 | -129.51003 | 39189 ft | 567 kts | 78° |
| 2026-04-24 08:26 | 27.64461 | -129.42322 | 39191 ft | 567 kts | 78° |
| 2026-04-24 08:27 | 27.66165 | -129.33645 | 39191 ft | 566 kts | 78° |
| 2026-04-24 08:27 | 27.67867 | -129.24951 | 39191 ft | 567 kts | 78° |
| 2026-04-24 08:28 | 27.69562 | -129.16261 | 39190 ft | 567 kts | 78° |
| 2026-04-24 08:28 | 27.71253 | -129.07559 | 39203 ft | 568 kts | 78° |
| 2026-04-24 08:29 | 27.72940 | -128.98851 | 39201 ft | 568 kts | 78° |
| 2026-04-24 08:29 | 27.74624 | -128.90124 | 39201 ft | 569 kts | 78° |
| 2026-04-24 08:30 | 27.76305 | -128.81384 | 39205 ft | 570 kts | 78° |
| 2026-04-24 08:30 | 27.77971 | -128.72688 | 39208 ft | 570 kts | 78° |
| 2026-04-24 08:31 | 27.79642 | -128.63940 | 39202 ft | 569 kts | 79° |
| 2026-04-24 08:31 | 27.81308 | -128.55183 | 39194 ft | 568 kts | 79° |
| 2026-04-24 08:32 | 27.82955 | -128.46495 | 39196 ft | 568 kts | 79° |
| 2026-04-24 08:32 | 27.84606 | -128.37755 | 39192 ft | 567 kts | 79° |
| 2026-04-24 08:33 | 27.86249 | -128.29023 | 39193 ft | 567 kts | 79° |
| 2026-04-24 08:33 | 27.87886 | -128.20295 | 39191 ft | 567 kts | 79° |
| 2026-04-24 08:34 | 27.89519 | -128.11551 | 39192 ft | 569 kts | 79° |
| 2026-04-24 08:34 | 27.91394 | -128.02855 | 39218 ft | 569 kts | 68° |
| 2026-04-24 08:34 | 27.93062 | -127.98872 | 39220 ft | 568 kts | 57° |
| 2026-04-24 08:35 | 27.95322 | -127.95227 | 39234 ft | 564 kts | 46° |
| 2026-04-24 08:35 | 28.00427 | -127.88470 | 39207 ft | 564 kts | 46° |
| 2026-04-24 08:36 | 28.05553 | -127.81756 | 39205 ft | 563 kts | 46° |
| 2026-04-24 08:36 | 28.10643 | -127.75015 | 39202 ft | 563 kts | 46° |
| 2026-04-24 08:37 | 28.15753 | -127.68282 | 39200 ft | 563 kts | 46° |
| 2026-04-24 08:37 | 28.20854 | -127.61520 | 39205 ft | 564 kts | 46° |
| 2026-04-24 08:38 | 28.25935 | -127.54794 | 39204 ft | 565 kts | 46° |
| 2026-04-24 08:38 | 28.31059 | -127.47987 | 39198 ft | 566 kts | 46° |
| 2026-04-24 08:39 | 28.36175 | -127.41187 | 39206 ft | 566 kts | 46° |
| 2026-04-24 08:39 | 28.41285 | -127.34380 | 39194 ft | 566 kts | 46° |
| 2026-04-24 08:40 | 28.46375 | -127.27590 | 39187 ft | 563 kts | 46° |
| 2026-04-24 08:40 | 28.51427 | -127.20840 | 39189 ft | 563 kts | 46° |
| 2026-04-24 08:41 | 28.56513 | -127.14034 | 39188 ft | 564 kts | 46° |
| 2026-04-24 08:41 | 28.61601 | -127.07213 | 39191 ft | 565 kts | 46° |
| 2026-04-24 08:42 | 28.66696 | -127.00371 | 39192 ft | 566 kts | 46° |
| 2026-04-24 08:42 | 28.71795 | -126.93514 | 39195 ft | 567 kts | 46° |
| 2026-04-24 08:43 | 28.76860 | -126.86689 | 39195 ft | 566 kts | 46° |
| 2026-04-24 08:43 | 28.81940 | -126.79835 | 39192 ft | 565 kts | 46° |
| 2026-04-24 08:44 | 28.87003 | -126.72991 | 39193 ft | 564 kts | 46° |
| 2026-04-24 08:44 | 28.92067 | -126.66136 | 39191 ft | 565 kts | 47° |
| 2026-04-24 08:45 | 28.97137 | -126.59260 | 39194 ft | 566 kts | 47° |
| 2026-04-24 08:45 | 29.02212 | -126.52366 | 39195 ft | 567 kts | 47° |
| 2026-04-24 08:46 | 29.07260 | -126.45498 | 39193 ft | 568 kts | 47° |
| 2026-04-24 08:46 | 29.12333 | -126.38582 | 39193 ft | 567 kts | 47° |
| 2026-04-24 08:47 | 29.17391 | -126.31678 | 39191 ft | 565 kts | 47° |
| 2026-04-24 08:47 | 29.22433 | -126.24783 | 39189 ft | 565 kts | 47° |
| 2026-04-24 08:48 | 29.27474 | -126.17877 | 39186 ft | 565 kts | 47° |
| 2026-04-24 08:48 | 29.32524 | -126.10947 | 39188 ft | 566 kts | 47° |
| 2026-04-24 08:49 | 29.37545 | -126.04045 | 39193 ft | 568 kts | 47° |
| 2026-04-24 08:49 | 29.42602 | -125.97083 | 39192 ft | 569 kts | 47° |
| 2026-04-24 08:50 | 29.47659 | -125.90107 | 39191 ft | 567 kts | 47° |
| 2026-04-24 08:50 | 29.52695 | -125.83151 | 39188 ft | 565 kts | 47° |
| 2026-04-24 08:51 | 29.57711 | -125.76209 | 39184 ft | 564 kts | 47° |
| 2026-04-24 08:51 | 29.62695 | -125.69301 | 39183 ft | 566 kts | 47° |
| 2026-04-24 08:52 | 29.67711 | -125.62333 | 39184 ft | 566 kts | 47° |
| 2026-04-24 08:52 | 29.72733 | -125.55348 | 39187 ft | 566 kts | 47° |
| 2026-04-24 08:53 | 29.77746 | -125.48362 | 39184 ft | 567 kts | 47° |
| 2026-04-24 08:53 | 29.82777 | -125.41339 | 39184 ft | 569 kts | 47° |
| 2026-04-24 08:54 | 29.87814 | -125.34295 | 39177 ft | 569 kts | 47° |
| 2026-04-24 08:54 | 29.92839 | -125.27255 | 39178 ft | 568 kts | 47° |
| 2026-04-24 08:55 | 29.97830 | -125.20252 | 39178 ft | 568 kts | 47° |
| 2026-04-24 08:55 | 30.02846 | -125.13201 | 39186 ft | 568 kts | 47° |
| 2026-04-24 08:56 | 30.07865 | -125.06132 | 39176 ft | 568 kts | 47° |
| 2026-04-24 08:56 | 30.12866 | -124.99078 | 39176 ft | 566 kts | 47° |
| 2026-04-24 08:57 | 30.17853 | -124.92029 | 39173 ft | 566 kts | 47° |
| 2026-04-24 08:57 | 30.22841 | -124.84969 | 39175 ft | 568 kts | 48° |
| 2026-04-24 08:58 | 30.27839 | -124.77880 | 39179 ft | 569 kts | 48° |
| 2026-04-24 08:58 | 30.32810 | -124.70817 | 39173 ft | 570 kts | 48° |
| 2026-04-24 08:59 | 30.37817 | -124.63691 | 39174 ft | 569 kts | 48° |
| 2026-04-24 08:59 | 30.42813 | -124.56568 | 39173 ft | 569 kts | 48° |
| 2026-04-24 09:00 | 30.47801 | -124.49442 | 39164 ft | 568 kts | 48° |
| 2026-04-24 09:00 | 30.52780 | -124.42318 | 39163 ft | 568 kts | 48° |
| 2026-04-24 09:01 | 30.57721 | -124.35235 | 39161 ft | 568 kts | 48° |
| 2026-04-24 09:01 | 30.62685 | -124.28105 | 39157 ft | 567 kts | 48° |
| 2026-04-24 09:02 | 30.67648 | -124.20965 | 39158 ft | 567 kts | 48° |
| 2026-04-24 09:02 | 30.72612 | -124.13811 | 39159 ft | 569 kts | 48° |
| 2026-04-24 09:03 | 30.77589 | -124.06623 | 39158 ft | 571 kts | 48° |
| 2026-04-24 09:03 | 30.81729 | -124.00634 | 39160 ft | 570 kts | 48° |
| 2026-04-24 09:04 | 30.87510 | -123.92258 | 39161 ft | 570 kts | 48° |
| 2026-04-24 09:04 | 30.91635 | -123.86269 | 39155 ft | 569 kts | 48° |
| 2026-04-24 09:05 | 30.96590 | -123.79064 | 39150 ft | 568 kts | 48° |
| 2026-04-24 09:05 | 31.01530 | -123.71866 | 39150 ft | 568 kts | 48° |
| 2026-04-24 09:06 | 31.06475 | -123.64650 | 39143 ft | 569 kts | 49° |
| 2026-04-24 09:06 | 31.11385 | -123.57469 | 39145 ft | 570 kts | 49° |
| 2026-04-24 09:06 | 31.13645 | -123.53651 | 39170 ft | 572 kts | 60° |
| 2026-04-24 09:07 | 31.15463 | -123.49501 | 39153 ft | 574 kts | 63° |
| 2026-04-24 09:07 | 31.20729 | -123.36931 | 39145 ft | 575 kts | 63° |
| 2026-04-24 09:08 | 31.24269 | -123.28541 | 39150 ft | 575 kts | 63° |
| 2026-04-24 09:08 | 31.27762 | -123.20177 | 39147 ft | 575 kts | 63° |
| 2026-04-24 09:09 | 31.31286 | -123.11765 | 39144 ft | 575 kts | 63° |
| 2026-04-24 09:09 | 31.34790 | -123.03351 | 39142 ft | 575 kts | 63° |
| 2026-04-24 09:10 | 31.38294 | -122.94936 | 39137 ft | 574 kts | 63° |
| 2026-04-24 09:10 | 31.41790 | -122.86511 | 39131 ft | 574 kts | 63° |
| 2026-04-24 09:11 | 31.45277 | -122.78095 | 39130 ft | 574 kts | 63° |
| 2026-04-24 09:11 | 31.48733 | -122.69730 | 39127 ft | 574 kts | 63° |
| 2026-04-24 09:12 | 31.52213 | -122.61288 | 39124 ft | 574 kts | 63° |
| 2026-04-24 09:12 | 31.55682 | -122.52854 | 39124 ft | 576 kts | 63° |
| 2026-04-24 09:13 | 31.59165 | -122.44364 | 39121 ft | 577 kts | 63° |
| 2026-04-24 09:13 | 31.62619 | -122.35928 | 39123 ft | 577 kts | 63° |
| 2026-04-24 09:14 | 31.66089 | -122.27430 | 39118 ft | 576 kts | 63° |
| 2026-04-24 09:14 | 31.69545 | -122.18947 | 39115 ft | 576 kts | 63° |
| 2026-04-24 09:15 | 31.72999 | -122.10450 | 39111 ft | 575 kts | 63° |
| 2026-04-24 09:15 | 31.76446 | -122.01950 | 39108 ft | 575 kts | 63° |
| 2026-04-24 09:16 | 31.79865 | -121.93498 | 39111 ft | 575 kts | 64° |
| 2026-04-24 09:16 | 31.83304 | -121.84976 | 39106 ft | 575 kts | 64° |
| 2026-04-24 09:17 | 31.86700 | -121.76542 | 39100 ft | 575 kts | 64° |
| 2026-04-24 09:17 | 31.90125 | -121.68015 | 39100 ft | 577 kts | 64° |
| 2026-04-24 09:18 | 31.93555 | -121.59454 | 39105 ft | 579 kts | 64° |
| 2026-04-24 09:18 | 31.96983 | -121.50876 | 39101 ft | 578 kts | 64° |
| 2026-04-24 09:19 | 32.00399 | -121.42311 | 39100 ft | 577 kts | 64° |
| 2026-04-24 09:19 | 32.03789 | -121.33787 | 39088 ft | 576 kts | 64° |
| 2026-04-24 09:20 | 32.07756 | -121.23789 | 39091 ft | 576 kts | 64° |
| 2026-04-24 09:20 | 32.10573 | -121.16671 | 39082 ft | 577 kts | 64° |
| 2026-04-24 09:21 | 32.13965 | -121.08082 | 39072 ft | 577 kts | 64° |
| 2026-04-24 09:21 | 32.17348 | -120.99492 | 39070 ft | 577 kts | 64° |
| 2026-04-24 09:22 | 32.20731 | -120.90884 | 39074 ft | 577 kts | 64° |
| 2026-04-24 09:22 | 32.24087 | -120.82321 | 39076 ft | 578 kts | 64° |
| 2026-04-24 09:23 | 32.27465 | -120.73681 | 39070 ft | 579 kts | 64° |
| 2026-04-24 09:23 | 32.30838 | -120.65033 | 39069 ft | 580 kts | 64° |
| 2026-04-24 09:24 | 32.34208 | -120.56371 | 39069 ft | 578 kts | 64° |
| 2026-04-24 09:24 | 32.37560 | -120.47735 | 39060 ft | 577 kts | 64° |
| 2026-04-24 09:25 | 32.40903 | -120.39099 | 39051 ft | 576 kts | 64° |
| 2026-04-24 09:25 | 32.44242 | -120.30453 | 39049 ft | 579 kts | 64° |
| 2026-04-24 09:26 | 32.47565 | -120.21824 | 39053 ft | 580 kts | 64° |
| 2026-04-24 09:26 | 32.50907 | -120.13126 | 39049 ft | 579 kts | 64° |
| 2026-04-24 09:27 | 32.54244 | -120.04420 | 39041 ft | 580 kts | 64° |
| 2026-04-24 09:27 | 32.57579 | -119.95696 | 39042 ft | 581 kts | 64° |
| 2026-04-24 09:28 | 32.60910 | -119.86960 | 39037 ft | 581 kts | 64° |
| 2026-04-24 09:28 | 32.64208 | -119.78288 | 39036 ft | 580 kts | 64° |
| 2026-04-24 09:29 | 32.67524 | -119.69548 | 39029 ft | 580 kts | 65° |
| 2026-04-24 09:29 | 32.70838 | -119.60789 | 39030 ft | 581 kts | 65° |
| 2026-04-24 09:30 | 32.74149 | -119.52013 | 39025 ft | 581 kts | 65° |
| 2026-04-24 09:30 | 32.77453 | -119.43238 | 39021 ft | 582 kts | 65° |
| 2026-04-24 09:31 | 32.80732 | -119.34503 | 39014 ft | 582 kts | 65° |
| 2026-04-24 09:31 | 32.84024 | -119.25713 | 39013 ft | 580 kts | 65° |
| 2026-04-24 09:32 | 32.87266 | -119.17033 | 39000 ft | 580 kts | 65° |
| 2026-04-24 09:32 | 32.90559 | -119.08193 | 38999 ft | 577 kts | 65° |
| 2026-04-24 09:33 | 32.93813 | -118.99437 | 38992 ft | 578 kts | 65° |
| 2026-04-24 09:33 | 32.97044 | -118.90715 | 38997 ft | 580 kts | 65° |
| 2026-04-24 09:34 | 33.00296 | -118.81919 | 38998 ft | 581 kts | 65° |
| 2026-04-24 09:34 | 33.03558 | -118.73071 | 38995 ft | 582 kts | 65° |
| 2026-04-24 09:35 | 33.06809 | -118.64228 | 38994 ft | 581 kts | 65° |
| 2026-04-24 09:35 | 33.10025 | -118.55457 | 38995 ft | 579 kts | 65° |
| 2026-04-24 09:36 | 33.13247 | -118.46647 | 38997 ft | 578 kts | 65° |
| 2026-04-24 09:36 | 33.16459 | -118.37842 | 38998 ft | 578 kts | 65° |
| 2026-04-24 09:37 | 33.19672 | -118.29009 | 39006 ft | 580 kts | 65° |
| 2026-04-24 09:37 | 33.22889 | -118.20143 | 39009 ft | 582 kts | 65° |
| 2026-04-24 09:38 | 33.26103 | -118.11259 | 38999 ft | 582 kts | 65° |
| 2026-04-24 09:38 | 33.29283 | -118.02446 | 38995 ft | 580 kts | 65° |
| 2026-04-24 09:39 | 33.32473 | -117.93583 | 38996 ft | 579 kts | 65° |
| 2026-04-24 09:39 | 33.35647 | -117.84738 | 38993 ft | 578 kts | 65° |
| 2026-04-24 09:40 | 33.38813 | -117.75896 | 38996 ft | 579 kts | 65° |
| 2026-04-24 09:40 | 33.41983 | -117.67015 | 39004 ft | 581 kts | 65° |
| 2026-04-24 09:41 | 33.45158 | -117.58097 | 39013 ft | 582 kts | 65° |
| 2026-04-24 09:41 | 33.48326 | -117.49174 | 39018 ft | 581 kts | 65° |
| 2026-04-24 09:42 | 33.51456 | -117.40327 | 39012 ft | 580 kts | 65° |
| 2026-04-24 09:42 | 33.54599 | -117.31435 | 39008 ft | 579 kts | 65° |
| 2026-04-24 09:43 | 33.57729 | -117.22540 | 39001 ft | 579 kts | 65° |
| 2026-04-24 09:43 | 33.60862 | -117.13620 | 39018 ft | 580 kts | 65° |
| 2026-04-24 09:44 | 33.63979 | -117.04716 | 39025 ft | 578 kts | 65° |
| 2026-04-24 09:44 | 33.67089 | -116.95811 | 39024 ft | 578 kts | 65° |
| 2026-04-24 09:45 | 33.70192 | -116.86899 | 39025 ft | 578 kts | 65° |
| 2026-04-24 09:45 | 33.73270 | -116.78034 | 39004 ft | 577 kts | 65° |
| 2026-04-24 09:46 | 33.76354 | -116.69131 | 38933 ft | 577 kts | 65° |
| 2026-04-24 09:46 | 33.79445 | -116.60176 | 38920 ft | 577 kts | 65° |
| 2026-04-24 09:47 | 33.82506 | -116.51297 | 38920 ft | 578 kts | 65° |
| 2026-04-24 09:47 | 33.85574 | -116.42355 | 38922 ft | 578 kts | 65° |
| 2026-04-24 09:48 | 33.88640 | -116.33405 | 38925 ft | 579 kts | 65° |
| 2026-04-24 09:48 | 33.91705 | -116.24423 | 38948 ft | 579 kts | 65° |
| 2026-04-24 09:49 | 33.94761 | -116.15452 | 38949 ft | 577 kts | 65° |
| 2026-04-24 09:49 | 33.97779 | -116.06563 | 38959 ft | 577 kts | 65° |
| 2026-04-24 09:50 | 34.00702 | -115.97533 | 38972 ft | 579 kts | 69° |
| 2026-04-24 09:50 | 34.03312 | -115.88351 | 38942 ft | 579 kts | 69° |
| 2026-04-24 09:51 | 34.05483 | -115.80700 | 38936 ft | 579 kts | 69° |
| 2026-04-24 09:51 | 34.08074 | -115.71497 | 38934 ft | 580 kts | 69° |
| 2026-04-24 09:52 | 34.10674 | -115.62282 | 38921 ft | 580 kts | 69° |
| 2026-04-24 09:52 | 34.13261 | -115.53045 | 38921 ft | 580 kts | 69° |
| 2026-04-24 09:53 | 34.15847 | -115.43806 | 38912 ft | 580 kts | 69° |
| 2026-04-24 09:53 | 34.18417 | -115.34578 | 38884 ft | 579 kts | 69° |
| 2026-04-24 09:54 | 34.20971 | -115.25387 | 38894 ft | 580 kts | 69° |
| 2026-04-24 09:54 | 34.23529 | -115.16146 | 38888 ft | 579 kts | 69° |
| 2026-04-24 09:55 | 34.26082 | -115.06898 | 38894 ft | 579 kts | 69° |
| 2026-04-24 09:55 | 34.28623 | -114.97656 | 38873 ft | 579 kts | 69° |
| 2026-04-24 09:56 | 34.31145 | -114.88457 | 38877 ft | 580 kts | 69° |
| 2026-04-24 09:56 | 34.33677 | -114.79185 | 38877 ft | 580 kts | 69° |
| 2026-04-24 09:57 | 34.36202 | -114.69915 | 38876 ft | 581 kts | 69° |
| 2026-04-24 09:57 | 34.38726 | -114.60612 | 38867 ft | 581 kts | 69° |
| 2026-04-24 09:58 | 34.41244 | -114.51302 | 38857 ft | 581 kts | 69° |
| 2026-04-24 09:58 | 34.43754 | -114.41990 | 38854 ft | 581 kts | 69° |
| 2026-04-24 09:59 | 34.46256 | -114.32674 | 38892 ft | 581 kts | 69° |
| 2026-04-24 09:59 | 34.48737 | -114.23408 | 38907 ft | 581 kts | 69° |
| 2026-04-24 10:00 | 34.51224 | -114.14083 | 38871 ft | 581 kts | 69° |
| 2026-04-24 10:00 | 34.53708 | -114.04737 | 38866 ft | 581 kts | 69° |
| 2026-04-24 10:01 | 34.56183 | -113.95401 | 38865 ft | 581 kts | 69° |
| 2026-04-24 10:01 | 34.58654 | -113.86038 | 38867 ft | 582 kts | 69° |
| 2026-04-24 10:02 | 34.61105 | -113.76724 | 38867 ft | 583 kts | 69° |
| 2026-04-24 10:02 | 34.63564 | -113.67342 | 38870 ft | 582 kts | 69° |
| 2026-04-24 10:03 | 34.66010 | -113.57982 | 38874 ft | 580 kts | 69° |
| 2026-04-24 10:03 | 34.68446 | -113.48624 | 38884 ft | 581 kts | 69° |
| 2026-04-24 10:04 | 34.70875 | -113.39262 | 38883 ft | 580 kts | 69° |
| 2026-04-24 10:04 | 34.73282 | -113.29951 | 38883 ft | 580 kts | 69° |
| 2026-04-24 10:05 | 34.75696 | -113.20581 | 38898 ft | 581 kts | 70° |
| 2026-04-24 10:05 | 34.78109 | -113.11181 | 38904 ft | 582 kts | 70° |
| 2026-04-24 10:06 | 34.81702 | -112.97118 | 38914 ft | 582 kts | 70° |
| 2026-04-24 10:07 | 34.84101 | -112.87687 | 38915 ft | 582 kts | 70° |
| 2026-04-24 10:07 | 34.86494 | -112.78245 | 38935 ft | 582 kts | 70° |
| 2026-04-24 10:08 | 34.88874 | -112.68821 | 38951 ft | 582 kts | 70° |
| 2026-04-24 10:08 | 34.91225 | -112.59480 | 38948 ft | 582 kts | 70° |
| 2026-04-24 10:09 | 34.93578 | -112.50095 | 38963 ft | 583 kts | 70° |
| 2026-04-24 10:09 | 34.95899 | -112.40618 | 38985 ft | 583 kts | 71° |
| 2026-04-24 10:10 | 34.98088 | -112.31109 | 38972 ft | 581 kts | 71° |
| 2026-04-24 10:10 | 35.00351 | -112.21642 | 38964 ft | 581 kts | 71° |
| 2026-04-24 10:11 | 35.02552 | -112.12140 | 38978 ft | 581 kts | 71° |
| 2026-04-24 10:11 | 35.04760 | -112.02730 | 38988 ft | 579 kts | 71° |
| 2026-04-24 10:12 | 35.06952 | -111.93264 | 39035 ft | 580 kts | 71° |
| 2026-04-24 10:12 | 35.09147 | -111.83799 | 39074 ft | 579 kts | 71° |
| 2026-04-24 10:13 | 35.11330 | -111.74324 | 39102 ft | 580 kts | 72° |
| 2026-04-24 10:13 | 35.13511 | -111.64827 | 39111 ft | 580 kts | 72° |
| 2026-04-24 10:14 | 35.15689 | -111.55304 | 38974 ft | 581 kts | 72° |
| 2026-04-24 10:14 | 35.17848 | -111.45826 | 38953 ft | 581 kts | 72° |
| 2026-04-24 10:15 | 35.20012 | -111.36294 | 38945 ft | 581 kts | 72° |
| 2026-04-24 10:15 | 35.22167 | -111.26758 | 38930 ft | 581 kts | 72° |
| 2026-04-24 10:16 | 35.24302 | -111.17273 | 38933 ft | 581 kts | 72° |
| 2026-04-24 10:16 | 35.26437 | -111.07750 | 38917 ft | 579 kts | 72° |
| 2026-04-24 10:17 | 35.28557 | -110.98258 | 38913 ft | 578 kts | 72° |
| 2026-04-24 10:17 | 35.30669 | -110.88764 | 38913 ft | 579 kts | 72° |
| 2026-04-24 10:18 | 35.32780 | -110.79236 | 38915 ft | 579 kts | 72° |
| 2026-04-24 10:18 | 35.34885 | -110.69696 | 38911 ft | 580 kts | 72° |
| 2026-04-24 10:19 | 35.36968 | -110.60213 | 38914 ft | 579 kts | 72° |
| 2026-04-24 10:19 | 35.39056 | -110.50675 | 38912 ft | 578 kts | 72° |
| 2026-04-24 10:20 | 35.41137 | -110.41124 | 38915 ft | 579 kts | 72° |
| 2026-04-24 10:20 | 35.43170 | -110.31756 | 38919 ft | 579 kts | 73° |
| 2026-04-24 10:21 | 35.45235 | -110.22205 | 38920 ft | 579 kts | 73° |
| 2026-04-24 10:21 | 35.47296 | -110.12629 | 38924 ft | 579 kts | 73° |
| 2026-04-24 10:22 | 35.49346 | -110.03066 | 38924 ft | 580 kts | 73° |
| 2026-04-24 10:22 | 35.51614 | -109.93577 | 38922 ft | 579 kts | 71° |
| 2026-04-24 10:23 | 35.53877 | -109.84145 | 38925 ft | 579 kts | 70° |
| 2026-04-24 10:23 | 35.56224 | -109.74679 | 38930 ft | 579 kts | 71° |
| 2026-04-24 10:24 | 35.58512 | -109.65200 | 38933 ft | 578 kts | 71° |
| 2026-04-24 10:24 | 35.60823 | -109.55721 | 38936 ft | 579 kts | 71° |
| 2026-04-24 10:25 | 35.63098 | -109.46283 | 38949 ft | 578 kts | 71° |
| 2026-04-24 10:25 | 35.65390 | -109.36778 | 38990 ft | 577 kts | 71° |
| 2026-04-24 10:26 | 35.67649 | -109.27353 | 39039 ft | 577 kts | 71° |
| 2026-04-24 10:26 | 35.69914 | -109.17874 | 39071 ft | 577 kts | 71° |
| 2026-04-24 10:27 | 35.72169 | -109.08401 | 39083 ft | 576 kts | 71° |
| 2026-04-24 10:27 | 35.74405 | -108.98970 | 39065 ft | 576 kts | 71° |
| 2026-04-24 10:28 | 35.76641 | -108.89505 | 39027 ft | 576 kts | 71° |
| 2026-04-24 10:28 | 35.78869 | -108.80031 | 38979 ft | 576 kts | 71° |
| 2026-04-24 10:29 | 35.81090 | -108.70561 | 38914 ft | 575 kts | 71° |
| 2026-04-24 10:29 | 35.83299 | -108.61091 | 38917 ft | 574 kts | 71° |
| 2026-04-24 10:30 | 35.85507 | -108.51602 | 38916 ft | 575 kts | 71° |
| 2026-04-24 10:30 | 35.87695 | -108.42151 | 38923 ft | 576 kts | 72° |
| 2026-04-24 10:31 | 35.89894 | -108.32621 | 38916 ft | 575 kts | 72° |
| 2026-04-24 10:31 | 35.92079 | -108.23111 | 38922 ft | 575 kts | 72° |
| 2026-04-24 10:32 | 35.94241 | -108.13665 | 38928 ft | 576 kts | 72° |
| 2026-04-24 10:32 | 35.96413 | -108.04138 | 38926 ft | 576 kts | 72° |
| 2026-04-24 10:33 | 35.98576 | -107.94609 | 38929 ft | 576 kts | 72° |
| 2026-04-24 10:33 | 36.00729 | -107.85089 | 38927 ft | 576 kts | 72° |
| 2026-04-24 10:34 | 36.02863 | -107.75611 | 38935 ft | 575 kts | 72° |
| 2026-04-24 10:34 | 36.04999 | -107.66089 | 38930 ft | 575 kts | 72° |
| 2026-04-24 10:35 | 36.07130 | -107.56548 | 38932 ft | 575 kts | 72° |
| 2026-04-24 10:35 | 36.09255 | -107.47000 | 38932 ft | 575 kts | 72° |
| 2026-04-24 10:36 | 36.11369 | -107.37457 | 38935 ft | 575 kts | 72° |
| 2026-04-24 10:36 | 36.13119 | -107.29528 | 38934 ft | 575 kts | 72° |
| 2026-04-24 10:37 | 36.15558 | -107.18433 | 38929 ft | 574 kts | 72° |
| 2026-04-24 10:37 | 36.17608 | -107.09064 | 38929 ft | 574 kts | 73° |
| 2026-04-24 10:38 | 36.19343 | -107.01107 | 38925 ft | 574 kts | 73° |
| 2026-04-24 10:38 | 36.21422 | -106.91538 | 38928 ft | 575 kts | 73° |
| 2026-04-24 10:39 | 36.23491 | -106.81968 | 38923 ft | 575 kts | 73° |
| 2026-04-24 10:39 | 36.25554 | -106.72391 | 38920 ft | 575 kts | 73° |
| 2026-04-24 10:40 | 36.27597 | -106.62861 | 38920 ft | 575 kts | 73° |
| 2026-04-24 10:40 | 36.29645 | -106.53275 | 38913 ft | 575 kts | 73° |
| 2026-04-24 10:41 | 36.31687 | -106.43672 | 38919 ft | 576 kts | 73° |
| 2026-04-24 10:41 | 36.33724 | -106.34048 | 38929 ft | 576 kts | 73° |
| 2026-04-24 10:42 | 36.35823 | -106.24447 | 38918 ft | 576 kts | 66° |
| 2026-04-24 10:42 | 36.38583 | -106.15171 | 38920 ft | 575 kts | 67° |
| 2026-04-24 10:43 | 36.41350 | -106.05829 | 38917 ft | 576 kts | 67° |
| 2026-04-24 10:43 | 36.44106 | -105.96494 | 38918 ft | 575 kts | 67° |
| 2026-04-24 10:44 | 36.46856 | -105.87154 | 38923 ft | 573 kts | 67° |
| 2026-04-24 10:44 | 36.49565 | -105.77914 | 38921 ft | 573 kts | 67° |
| 2026-04-24 10:45 | 36.52293 | -105.68585 | 38939 ft | 574 kts | 67° |
| 2026-04-24 10:45 | 36.55017 | -105.59233 | 38964 ft | 573 kts | 68° |
| 2026-04-24 10:46 | 36.57721 | -105.49921 | 38907 ft | 571 kts | 68° |
| 2026-04-24 10:46 | 36.60397 | -105.40673 | 38900 ft | 571 kts | 68° |
| 2026-04-24 10:47 | 36.63082 | -105.31364 | 38907 ft | 571 kts | 68° |
| 2026-04-24 10:47 | 36.65772 | -105.22008 | 38909 ft | 577 kts | 68° |
| 2026-04-24 10:48 | 36.68472 | -105.12577 | 38890 ft | 578 kts | 68° |
| 2026-04-24 10:48 | 36.71157 | -105.03175 | 38877 ft | 578 kts | 68° |
| 2026-04-24 10:49 | 36.73848 | -104.93713 | 38879 ft | 577 kts | 68° |
| 2026-04-24 10:49 | 36.76517 | -104.84296 | 38896 ft | 572 kts | 68° |
| 2026-04-24 10:50 | 36.79164 | -104.74929 | 38957 ft | 573 kts | 68° |
| 2026-04-24 10:50 | 36.81789 | -104.65604 | 38961 ft | 572 kts | 68° |
| 2026-04-24 10:51 | 36.84420 | -104.56226 | 38974 ft | 572 kts | 68° |
| 2026-04-24 10:51 | 36.87048 | -104.46827 | 38965 ft | 573 kts | 68° |
| 2026-04-24 10:52 | 36.89668 | -104.37420 | 38934 ft | 573 kts | 68° |
| 2026-04-24 10:52 | 36.92283 | -104.28002 | 38890 ft | 574 kts | 68° |
| 2026-04-24 10:53 | 36.94892 | -104.18567 | 38836 ft | 575 kts | 68° |
| 2026-04-24 10:53 | 36.97484 | -104.09164 | 38826 ft | 575 kts | 68° |
| 2026-04-24 10:54 | 37.00097 | -103.99681 | 38810 ft | 574 kts | 66° |
| 2026-04-24 10:54 | 37.02889 | -103.90331 | 38808 ft | 574 kts | 67° |
| 2026-04-24 10:55 | 37.05633 | -103.80997 | 38810 ft | 574 kts | 66° |
| 2026-04-24 10:55 | 37.08422 | -103.71628 | 38798 ft | 575 kts | 67° |
| 2026-04-24 10:56 | 37.11178 | -103.62210 | 38794 ft | 574 kts | 66° |
| 2026-04-24 10:56 | 37.13944 | -103.52825 | 38798 ft | 574 kts | 67° |
| 2026-04-24 10:57 | 37.16665 | -103.43492 | 38800 ft | 573 kts | 67° |
| 2026-04-24 10:57 | 37.19406 | -103.34106 | 38803 ft | 572 kts | 67° |
| 2026-04-24 10:58 | 37.22129 | -103.24717 | 38801 ft | 573 kts | 67° |
| 2026-04-24 10:58 | 37.24783 | -103.15554 | 38810 ft | 573 kts | 67° |
| 2026-04-24 10:59 | 37.27496 | -103.06146 | 38821 ft | 573 kts | 68° |
| 2026-04-24 10:59 | 37.30202 | -102.96732 | 38815 ft | 572 kts | 68° |
| 2026-04-24 11:00 | 37.32901 | -102.87312 | 38824 ft | 572 kts | 68° |
| 2026-04-24 11:00 | 37.35588 | -102.77898 | 38823 ft | 573 kts | 68° |
| 2026-04-24 11:01 | 37.38267 | -102.68478 | 38817 ft | 570 kts | 68° |
| 2026-04-24 11:01 | 37.40914 | -102.59141 | 38826 ft | 569 kts | 68° |
| 2026-04-24 11:02 | 37.43565 | -102.49757 | 38828 ft | 569 kts | 68° |
| 2026-04-24 11:02 | 37.46211 | -102.40357 | 38829 ft | 569 kts | 68° |
| 2026-04-24 11:03 | 37.48834 | -102.31007 | 38837 ft | 569 kts | 68° |
| 2026-04-24 11:03 | 37.51462 | -102.21603 | 38837 ft | 568 kts | 69° |
| 2026-04-24 11:04 | 37.54083 | -102.12194 | 38851 ft | 568 kts | 69° |
| 2026-04-24 11:04 | 37.56691 | -102.02797 | 38871 ft | 569 kts | 69° |
| 2026-04-24 11:05 | 37.59302 | -101.93356 | 38902 ft | 571 kts | 69° |
| 2026-04-24 11:05 | 37.61906 | -101.83904 | 38915 ft | 569 kts | 69° |
| 2026-04-24 11:06 | 37.64480 | -101.74531 | 38913 ft | 568 kts | 69° |
| 2026-04-24 11:06 | 37.67061 | -101.65099 | 38904 ft | 568 kts | 69° |
| 2026-04-24 11:07 | 37.70925 | -101.50908 | 38896 ft | 568 kts | 70° |
| 2026-04-24 11:07 | 37.73470 | -101.41524 | 38900 ft | 568 kts | 70° |
| 2026-04-24 11:08 | 37.76026 | -101.32059 | 38894 ft | 568 kts | 70° |
| 2026-04-24 11:08 | 37.78575 | -101.22591 | 38839 ft | 568 kts | 70° |
| 2026-04-24 11:09 | 37.81107 | -101.13150 | 38841 ft | 567 kts | 70° |
| 2026-04-24 11:09 | 37.83637 | -101.03682 | 38861 ft | 568 kts | 70° |
| 2026-04-24 11:10 | 37.86152 | -100.94234 | 38883 ft | 570 kts | 70° |
| 2026-04-24 11:10 | 37.88681 | -100.84697 | 38907 ft | 571 kts | 70° |
| 2026-04-24 11:11 | 37.91202 | -100.75155 | 38913 ft | 570 kts | 70° |
| 2026-04-24 11:11 | 37.94010 | -100.65870 | 38911 ft | 568 kts | 66° |
| 2026-04-24 11:12 | 37.96922 | -100.56571 | 38893 ft | 568 kts | 67° |
| 2026-04-24 11:12 | 37.99854 | -100.47275 | 38831 ft | 567 kts | 67° |
| 2026-04-24 11:13 | 38.02757 | -100.37986 | 38838 ft | 566 kts | 67° |
| 2026-04-24 11:13 | 38.05660 | -100.28694 | 38837 ft | 566 kts | 67° |
| 2026-04-24 11:14 | 38.08555 | -100.19383 | 38838 ft | 567 kts | 67° |
| 2026-04-24 11:14 | 38.11435 | -100.10095 | 38844 ft | 569 kts | 67° |
| 2026-04-24 11:15 | 38.14330 | -100.00728 | 38849 ft | 570 kts | 67° |
| 2026-04-24 11:15 | 38.17220 | -99.91343 | 38854 ft | 571 kts | 67° |
| 2026-04-24 11:16 | 38.20102 | -99.81956 | 38840 ft | 569 kts | 68° |
| 2026-04-24 11:16 | 38.22968 | -99.72583 | 38840 ft | 566 kts | 68° |
| 2026-04-24 11:17 | 38.25814 | -99.63249 | 38854 ft | 566 kts | 68° |
| 2026-04-24 11:17 | 38.28654 | -99.53903 | 38853 ft | 566 kts | 68° |
| 2026-04-24 11:18 | 38.31484 | -99.44558 | 38840 ft | 564 kts | 68° |
| 2026-04-24 11:18 | 38.34282 | -99.35281 | 38853 ft | 564 kts | 68° |
| 2026-04-24 11:19 | 38.37096 | -99.25928 | 38858 ft | 565 kts | 69° |
| 2026-04-24 11:19 | 38.39904 | -99.16557 | 38862 ft | 565 kts | 69° |
| 2026-04-24 11:20 | 38.42690 | -99.07234 | 38863 ft | 565 kts | 69° |
| 2026-04-24 11:20 | 38.45482 | -98.97852 | 38877 ft | 565 kts | 69° |
| 2026-04-24 11:21 | 38.48261 | -98.88485 | 38878 ft | 564 kts | 69° |
| 2026-04-24 11:21 | 38.51017 | -98.79163 | 38868 ft | 564 kts | 69° |
| 2026-04-24 11:22 | 38.53782 | -98.69778 | 38849 ft | 564 kts | 69° |
| 2026-04-24 11:22 | 38.56535 | -98.60398 | 38834 ft | 562 kts | 70° |
| 2026-04-24 11:23 | 38.59275 | -98.51033 | 38836 ft | 563 kts | 70° |
| 2026-04-24 11:23 | 38.61552 | -98.43223 | 38836 ft | 563 kts | 70° |
| 2026-04-24 11:24 | 38.64724 | -98.32312 | 38830 ft | 562 kts | 70° |
| 2026-04-24 11:24 | 38.67000 | -98.24449 | 38828 ft | 562 kts | 70° |
| 2026-04-24 11:25 | 38.69696 | -98.15109 | 38827 ft | 562 kts | 70° |
| 2026-04-24 11:25 | 38.72400 | -98.05708 | 38832 ft | 562 kts | 70° |
| 2026-04-24 11:26 | 38.75103 | -97.96280 | 38826 ft | 564 kts | 71° |
| 2026-04-24 11:26 | 38.77797 | -97.86846 | 38856 ft | 564 kts | 71° |
| 2026-04-24 11:27 | 38.80488 | -97.77388 | 38862 ft | 564 kts | 71° |
| 2026-04-24 11:27 | 38.83153 | -97.67991 | 38864 ft | 564 kts | 71° |
| 2026-04-24 11:28 | 38.85827 | -97.58525 | 38861 ft | 564 kts | 71° |
| 2026-04-24 11:28 | 38.88495 | -97.49052 | 38867 ft | 563 kts | 71° |
| 2026-04-24 11:29 | 38.91149 | -97.39589 | 38852 ft | 563 kts | 72° |
| 2026-04-24 11:29 | 38.93793 | -97.30129 | 38851 ft | 562 kts | 72° |
| 2026-04-24 11:30 | 38.96428 | -97.20667 | 38850 ft | 562 kts | 72° |
| 2026-04-24 11:30 | 38.99044 | -97.11238 | 38849 ft | 564 kts | 72° |
| 2026-04-24 11:31 | 39.01680 | -97.01702 | 38855 ft | 565 kts | 72° |
| 2026-04-24 11:31 | 39.04288 | -96.92233 | 38857 ft | 564 kts | 72° |
| 2026-04-24 11:32 | 39.06900 | -96.82717 | 38836 ft | 564 kts | 72° |
| 2026-04-24 11:32 | 39.09502 | -96.73196 | 38845 ft | 564 kts | 72° |
| 2026-04-24 11:33 | 39.12097 | -96.63674 | 38848 ft | 564 kts | 72° |
| 2026-04-24 11:33 | 39.14683 | -96.54144 | 38835 ft | 563 kts | 72° |
| 2026-04-24 11:34 | 39.17263 | -96.44603 | 38831 ft | 564 kts | 73° |
| 2026-04-24 11:34 | 39.19836 | -96.35045 | 38842 ft | 564 kts | 73° |
| 2026-04-24 11:35 | 39.22318 | -96.25797 | 38846 ft | 564 kts | 73° |
| 2026-04-24 11:35 | 39.24862 | -96.16284 | 38843 ft | 565 kts | 73° |
| 2026-04-24 11:36 | 39.27420 | -96.06683 | 38825 ft | 564 kts | 74° |
| 2026-04-24 11:36 | 39.29879 | -95.97414 | 38827 ft | 561 kts | 74° |
| 2026-04-24 11:37 | 39.32402 | -95.87869 | 38822 ft | 560 kts | 74° |
| 2026-04-24 11:37 | 39.34896 | -95.78397 | 38819 ft | 559 kts | 74° |
| 2026-04-24 11:38 | 39.37398 | -95.68865 | 38820 ft | 559 kts | 75° |
| 2026-04-24 11:38 | 39.39870 | -95.59406 | 38822 ft | 551 kts | 76° |
| 2026-04-24 11:39 | 39.42318 | -95.49996 | 38816 ft | 553 kts | 76° |
| 2026-04-24 11:39 | 39.44751 | -95.40623 | 38818 ft | 554 kts | 76° |
| 2026-04-24 11:40 | 39.47205 | -95.31122 | 38813 ft | 557 kts | 77° |
| 2026-04-24 11:40 | 39.49636 | -95.21688 | 38819 ft | 549 kts | 77° |
| 2026-04-24 11:41 | 39.51973 | -95.12558 | 38819 ft | 549 kts | 77° |
| 2026-04-24 11:41 | 39.54378 | -95.03152 | 38828 ft | 550 kts | 77° |
| 2026-04-24 11:42 | 39.56762 | -94.93783 | 38820 ft | 551 kts | 78° |
| 2026-04-24 11:42 | 39.59159 | -94.84325 | 38837 ft | 553 kts | 78° |
| 2026-04-24 11:43 | 39.61553 | -94.74847 | 38842 ft | 552 kts | 78° |
| 2026-04-24 11:43 | 39.63935 | -94.65376 | 38823 ft | 551 kts | 78° |
| 2026-04-24 11:44 | 39.66306 | -94.55913 | 38808 ft | 550 kts | 80° |
| 2026-04-24 11:44 | 39.68644 | -94.46544 | 38843 ft | 549 kts | 80° |
| 2026-04-24 11:45 | 39.70990 | -94.37104 | 38856 ft | 550 kts | 80° |
| 2026-04-24 11:45 | 39.73336 | -94.27629 | 38861 ft | 553 kts | 80° |
| 2026-04-24 11:46 | 39.75697 | -94.18052 | 38858 ft | 558 kts | 80° |
| 2026-04-24 11:46 | 39.78055 | -94.08469 | 38850 ft | 555 kts | 81° |
| 2026-04-24 11:47 | 39.80378 | -93.98956 | 38828 ft | 554 kts | 81° |
| 2026-04-24 11:47 | 39.82706 | -93.89413 | 38802 ft | 554 kts | 81° |
| 2026-04-24 11:48 | 39.85023 | -93.79854 | 38756 ft | 553 kts | 80° |
| 2026-04-24 11:48 | 39.87337 | -93.70284 | 38777 ft | 555 kts | 80° |
| 2026-04-24 11:49 | 39.89650 | -93.60675 | 38782 ft | 555 kts | 80° |
| 2026-04-24 11:49 | 39.91950 | -93.51081 | 38782 ft | 555 kts | 80° |
| 2026-04-24 11:50 | 39.94231 | -93.41526 | 38780 ft | 554 kts | 80° |
| 2026-04-24 11:50 | 39.96520 | -93.31897 | 38774 ft | 554 kts | 80° |
| 2026-04-24 11:51 | 39.98779 | -93.22358 | 38804 ft | 554 kts | 81° |
| 2026-04-24 11:51 | 40.01051 | -93.12714 | 38779 ft | 557 kts | 81° |
| 2026-04-24 11:52 | 40.03324 | -93.03042 | 38748 ft | 557 kts | 80° |
| 2026-04-24 11:52 | 40.05579 | -92.93394 | 38962 ft | 556 kts | 80° |
| 2026-04-24 11:53 | 40.07835 | -92.83697 | 39046 ft | 560 kts | 79° |
| 2026-04-24 11:53 | 40.10089 | -92.73992 | 39072 ft | 557 kts | 79° |
| 2026-04-24 11:54 | 40.12316 | -92.64324 | 39089 ft | 554 kts | 78° |
| 2026-04-24 11:54 | 40.15047 | -92.54918 | 39087 ft | 556 kts | 69° |
| 2026-04-24 11:55 | 40.18352 | -92.45809 | 39082 ft | 558 kts | 69° |
| 2026-04-24 11:55 | 40.21667 | -92.36637 | 39068 ft | 557 kts | 69° |
| 2026-04-24 11:56 | 40.24976 | -92.27449 | 39044 ft | 560 kts | 69° |
| 2026-04-24 11:56 | 40.28248 | -92.18342 | 39044 ft | 557 kts | 69° |
| 2026-04-24 11:57 | 40.31532 | -92.09164 | 39034 ft | 556 kts | 69° |
| 2026-04-24 11:57 | 40.34787 | -92.00044 | 39033 ft | 556 kts | 69° |
| 2026-04-24 11:58 | 40.38060 | -91.90842 | 39023 ft | 555 kts | 69° |
| 2026-04-24 11:58 | 40.41330 | -91.81617 | 39049 ft | 561 kts | 68° |
| 2026-04-24 11:59 | 40.44579 | -91.72293 | 39073 ft | 561 kts | 69° |
| 2026-04-24 11:59 | 40.47693 | -91.62969 | 39085 ft | 560 kts | 69° |
| 2026-04-24 12:00 | 40.50887 | -91.53623 | 39095 ft | 559 kts | 69° |
| 2026-04-24 12:00 | 40.54033 | -91.44232 | 39093 ft | 564 kts | 68° |
| 2026-04-24 12:01 | 40.57217 | -91.34860 | 39085 ft | 564 kts | 68° |
| 2026-04-24 12:01 | 40.60449 | -91.25473 | 39083 ft | 562 kts | 68° |
| 2026-04-24 12:02 | 40.63634 | -91.16088 | 39074 ft | 561 kts | 68° |
| 2026-04-24 12:02 | 40.66835 | -91.06690 | 39068 ft | 562 kts | 67° |
| 2026-04-24 12:03 | 40.70020 | -90.97269 | 39049 ft | 563 kts | 68° |
| 2026-04-24 12:03 | 40.73208 | -90.87829 | 39061 ft | 563 kts | 68° |
| 2026-04-24 12:04 | 40.76383 | -90.78382 | 39068 ft | 563 kts | 68° |
| 2026-04-24 12:04 | 40.77953 | -90.73701 | 38949 ft | 564 kts | 67° |
| 2026-04-24 12:04 | 40.79539 | -90.68966 | 38719 ft | 562 kts | 67° |
| 2026-04-24 12:05 | 40.81112 | -90.64266 | 38491 ft | 557 kts | 68° |
| 2026-04-24 12:05 | 40.82669 | -90.59598 | 38211 ft | 553 kts | 68° |
| 2026-04-24 12:05 | 40.84217 | -90.54960 | 37947 ft | 552 kts | 68° |
| 2026-04-24 12:05 | 40.85771 | -90.50325 | 37685 ft | 552 kts | 68° |
| 2026-04-24 12:06 | 40.87325 | -90.45683 | 37412 ft | 552 kts | 68° |
| 2026-04-24 12:06 | 40.88871 | -90.41038 | 37151 ft | 552 kts | 68° |
| 2026-04-24 12:06 | 40.90419 | -90.36374 | 36853 ft | 552 kts | 68° |
| 2026-04-24 12:06 | 40.91962 | -90.31732 | 36623 ft | 552 kts | 68° |
| 2026-04-24 12:07 | 40.93505 | -90.27085 | 36360 ft | 553 kts | 68° |
| 2026-04-24 12:07 | 40.95028 | -90.22484 | 36112 ft | 553 kts | 68° |
| 2026-04-24 12:07 | 40.96568 | -90.17819 | 35859 ft | 553 kts | 68° |
| 2026-04-24 12:07 | 40.98106 | -90.13160 | 35601 ft | 553 kts | 68° |
| 2026-04-24 12:08 | 40.99646 | -90.08485 | 35348 ft | 553 kts | 68° |
| 2026-04-24 12:08 | 41.01181 | -90.03817 | 35091 ft | 553 kts | 68° |
| 2026-04-24 12:08 | 41.02713 | -89.99149 | 34813 ft | 553 kts | 68° |
| 2026-04-24 12:08 | 41.04243 | -89.94480 | 34537 ft | 552 kts | 68° |
| 2026-04-24 12:09 | 41.05789 | -89.89818 | 34300 ft | 552 kts | 67° |
| 2026-04-24 12:09 | 41.07341 | -89.85153 | 34046 ft | 553 kts | 68° |
| 2026-04-24 12:09 | 41.08884 | -89.80472 | 33795 ft | 553 kts | 68° |
| 2026-04-24 12:09 | 41.10420 | -89.75786 | 33519 ft | 554 kts | 68° |
| 2026-04-24 12:10 | 41.11939 | -89.71164 | 33246 ft | 553 kts | 68° |
| 2026-04-24 12:10 | 41.13480 | -89.66478 | 32981 ft | 552 kts | 68° |
| 2026-04-24 12:10 | 41.14500 | -89.63369 | 32800 ft | 552 kts | 68° |
| 2026-04-24 12:11 | 41.17847 | -89.54191 | 32267 ft | 554 kts | 63° |
| 2026-04-24 12:11 | 41.19689 | -89.49688 | 32005 ft | 555 kts | 63° |
| 2026-04-24 12:11 | 41.21529 | -89.45187 | 31743 ft | 554 kts | 63° |
| 2026-04-24 12:11 | 41.23947 | -89.39198 | 31388 ft | 553 kts | 63° |
| 2026-04-24 12:12 | 41.25177 | -89.36146 | 31216 ft | 552 kts | 63° |
| 2026-04-24 12:12 | 41.27577 | -89.30211 | 30869 ft | 549 kts | 63° |
| 2026-04-24 12:12 | 41.28773 | -89.27253 | 30703 ft | 547 kts | 63° |
| 2026-04-24 12:12 | 41.30563 | -89.22799 | 30407 ft | 544 kts | 63° |
| 2026-04-24 12:13 | 41.32330 | -89.18370 | 30136 ft | 539 kts | 63° |
| 2026-04-24 12:13 | 41.34076 | -89.14003 | 29706 ft | 531 kts | 63° |
| 2026-04-24 12:13 | 41.35806 | -89.09686 | 29245 ft | 523 kts | 64° |
| 2026-04-24 12:13 | 41.37505 | -89.05430 | 28752 ft | 515 kts | 64° |
| 2026-04-24 12:14 | 41.39169 | -89.01246 | 28215 ft | 509 kts | 64° |
| 2026-04-24 12:14 | 41.40817 | -88.97099 | 27685 ft | 503 kts | 64° |
| 2026-04-24 12:14 | 41.42429 | -88.93043 | 27173 ft | 498 kts | 64° |
| 2026-04-24 12:14 | 41.44040 | -88.88984 | 26520 ft | 495 kts | 64° |
| 2026-04-24 12:15 | 41.45647 | -88.84924 | 25767 ft | 495 kts | 64° |
| 2026-04-24 12:15 | 41.47247 | -88.80877 | 25063 ft | 493 kts | 64° |
| 2026-04-24 12:15 | 41.48846 | -88.76833 | 24372 ft | 491 kts | 64° |
| 2026-04-24 12:15 | 41.50438 | -88.72800 | 23697 ft | 488 kts | 64° |
| 2026-04-24 12:16 | 41.52012 | -88.68804 | 22979 ft | 485 kts | 64° |
| 2026-04-24 12:16 | 41.53579 | -88.64827 | 22200 ft | 482 kts | 64° |
| 2026-04-24 12:16 | 41.55132 | -88.60885 | 21431 ft | 478 kts | 64° |
| 2026-04-24 12:16 | 41.56805 | -88.57061 | 20699 ft | 476 kts | 55° |
| 2026-04-24 12:17 | 41.58945 | -88.53702 | 19978 ft | 473 kts | 49° |
| 2026-04-24 12:17 | 41.61158 | -88.50472 | 19261 ft | 469 kts | 48° |
| 2026-04-24 12:17 | 41.63367 | -88.47288 | 18562 ft | 466 kts | 48° |
| 2026-04-24 12:17 | 41.65548 | -88.44114 | 17845 ft | 461 kts | 49° |
| 2026-04-24 12:18 | 41.67677 | -88.40988 | 17073 ft | 457 kts | 49° |
| 2026-04-24 12:18 | 41.69810 | -88.37859 | 16311 ft | 453 kts | 48° |
| 2026-04-24 12:18 | 41.71993 | -88.34841 | 15572 ft | 448 kts | 42° |
| 2026-04-24 12:18 | 41.74323 | -88.32088 | 14841 ft | 444 kts | 41° |
| 2026-04-24 12:19 | 41.76616 | -88.29347 | 14135 ft | 440 kts | 42° |
| 2026-04-24 12:19 | 41.78887 | -88.26616 | 13444 ft | 436 kts | 42° |
| 2026-04-24 12:19 | 41.81132 | -88.23921 | 12664 ft | 431 kts | 42° |
| 2026-04-24 12:19 | 41.83357 | -88.21256 | 11945 ft | 426 kts | 42° |
| 2026-04-24 12:20 | 41.85518 | -88.18573 | 11271 ft | 419 kts | 48° |
| 2026-04-24 12:20 | 41.87179 | -88.15421 | 10607 ft | 410 kts | 64° |
| 2026-04-24 12:20 | 41.88152 | -88.11999 | 10482 ft | 385 kts | 79° |
| 2026-04-24 12:20 | 41.88497 | -88.08574 | 10425 ft | 357 kts | 94° |
| 2026-04-24 12:21 | 41.88496 | -88.05342 | 10371 ft | 337 kts | 95° |
| 2026-04-24 12:21 | 41.88486 | -88.02276 | 10311 ft | 319 kts | 96° |
| 2026-04-24 12:21 | 41.88459 | -87.99350 | 10306 ft | 309 kts | 96° |
| 2026-04-24 12:21 | 41.88438 | -87.96487 | 10309 ft | 305 kts | 96° |
| 2026-04-24 12:22 | 41.88442 | -87.93648 | 10218 ft | 302 kts | 95° |
| 2026-04-24 12:22 | 41.88451 | -87.90872 | 10107 ft | 294 kts | 96° |
| 2026-04-24 12:22 | 41.88449 | -87.88145 | 9990 ft | 290 kts | 96° |
| 2026-04-24 12:22 | 41.88441 | -87.85442 | 9872 ft | 288 kts | 96° |
| 2026-04-24 12:23 | 41.88436 | -87.82754 | 9698 ft | 289 kts | 96° |
| 2026-04-24 12:23 | 41.88433 | -87.80070 | 9519 ft | 287 kts | 96° |
| 2026-04-24 12:23 | 41.88431 | -87.77429 | 9314 ft | 285 kts | 96° |
| 2026-04-24 12:23 | 41.88429 | -87.74772 | 9106 ft | 284 kts | 96° |
| 2026-04-24 12:24 | 41.88427 | -87.72138 | 9004 ft | 276 kts | 96° |
| 2026-04-24 12:24 | 41.88425 | -87.69594 | 9000 ft | 272 kts | 96° |
| 2026-04-24 12:24 | 41.88417 | -87.67033 | 9004 ft | 275 kts | 96° |
| 2026-04-24 12:24 | 41.88412 | -87.64466 | 9005 ft | 274 kts | 96° |
| 2026-04-24 12:25 | 41.88408 | -87.61913 | 8999 ft | 272 kts | 96° |
| 2026-04-24 12:25 | 41.88402 | -87.59371 | 8998 ft | 273 kts | 96° |
| 2026-04-24 12:25 | 41.88394 | -87.56821 | 9001 ft | 273 kts | 96° |
| 2026-04-24 12:25 | 41.88388 | -87.54307 | 9007 ft | 273 kts | 96° |
| 2026-04-24 12:26 | 41.88445 | -87.51744 | 9009 ft | 275 kts | 94° |
| 2026-04-24 12:26 | 41.88518 | -87.49178 | 9009 ft | 275 kts | 94° |
| 2026-04-24 12:26 | 41.88593 | -87.46607 | 9010 ft | 275 kts | 94° |
| 2026-04-24 12:26 | 41.88653 | -87.44037 | 9008 ft | 274 kts | 94° |
| 2026-04-24 12:27 | 41.88697 | -87.41463 | 8917 ft | 277 kts | 95° |
| 2026-04-24 12:27 | 41.88738 | -87.38895 | 8786 ft | 272 kts | 95° |
| 2026-04-24 12:27 | 41.88782 | -87.36448 | 8657 ft | 260 kts | 95° |
| 2026-04-24 12:27 | 41.88856 | -87.34039 | 8526 ft | 258 kts | 92° |
| 2026-04-24 12:28 | 41.88983 | -87.31641 | 8374 ft | 258 kts | 91° |
| 2026-04-24 12:28 | 41.89114 | -87.29244 | 8234 ft | 256 kts | 91° |
| 2026-04-24 12:28 | 41.89242 | -87.26890 | 8072 ft | 250 kts | 91° |
| 2026-04-24 12:28 | 41.89776 | -87.24673 | 8001 ft | 255 kts | 56° |
| 2026-04-24 12:29 | 41.91197 | -87.23303 | 8008 ft | 257 kts | 15° |
| 2026-04-24 12:29 | 41.92954 | -87.23005 | 8037 ft | 253 kts | 358° |
| 2026-04-24 12:29 | 41.94711 | -87.22973 | 8051 ft | 253 kts | 354° |
| 2026-04-24 12:29 | 41.96430 | -87.23311 | 8013 ft | 246 kts | 331° |
| 2026-04-24 12:30 | 41.97744 | -87.24615 | 8040 ft | 231 kts | 308° |
| 2026-04-24 12:30 | 41.98847 | -87.26183 | 8031 ft | 227 kts | 300° |
| 2026-04-24 12:30 | 41.99370 | -87.28074 | 8029 ft | 212 kts | 274° |
| 2026-04-24 12:30 | 41.99510 | -87.30006 | 8032 ft | 209 kts | 263° |
| 2026-04-24 12:31 | 41.99430 | -87.31944 | 8041 ft | 207 kts | 259° |
| 2026-04-24 12:31 | 41.99240 | -87.33857 | 8036 ft | 207 kts | 255° |
| 2026-04-24 12:31 | 41.98989 | -87.35780 | 7894 ft | 209 kts | 255° |
| 2026-04-24 12:31 | 41.98771 | -87.37706 | 7639 ft | 209 kts | 260° |
| 2026-04-24 12:32 | 41.98781 | -87.39666 | 7386 ft | 209 kts | 266° |
| 2026-04-24 12:32 | 41.98837 | -87.41617 | 7141 ft | 208 kts | 265° |
| 2026-04-24 12:32 | 41.98835 | -87.43546 | 6913 ft | 205 kts | 264° |
| 2026-04-24 12:32 | 41.98817 | -87.45461 | 6687 ft | 205 kts | 264° |
| 2026-04-24 12:33 | 41.98793 | -87.47374 | 6451 ft | 203 kts | 264° |
| 2026-04-24 12:33 | 41.98803 | -87.49242 | 6207 ft | 197 kts | 266° |
| 2026-04-24 12:33 | 41.98856 | -87.51071 | 5949 ft | 194 kts | 265° |
| 2026-04-24 12:33 | 41.98843 | -87.52872 | 5694 ft | 192 kts | 264° |
| 2026-04-24 12:34 | 41.98820 | -87.54660 | 5365 ft | 189 kts | 264° |
| 2026-04-24 12:34 | 41.98799 | -87.56375 | 5141 ft | 180 kts | 264° |
| 2026-04-24 12:34 | 41.98800 | -87.58031 | 4929 ft | 179 kts | 265° |
| 2026-04-24 12:34 | 41.98832 | -87.59708 | 4666 ft | 180 kts | 266° |
| 2026-04-24 12:35 | 41.98863 | -87.61363 | 4358 ft | 174 kts | 266° |
| 2026-04-24 12:35 | 41.98893 | -87.62985 | 4051 ft | 173 kts | 266° |
| 2026-04-24 12:35 | 41.98927 | -87.64554 | 4012 ft | 162 kts | 266° |
| 2026-04-24 12:35 | 41.98955 | -87.66058 | 3812 ft | 163 kts | 265° |
| 2026-04-24 12:36 | 41.98962 | -87.67572 | 3609 ft | 160 kts | 263° |
| 2026-04-24 12:36 | 41.98954 | -87.69071 | 3392 ft | 160 kts | 263° |
| 2026-04-24 12:36 | 41.98952 | -87.70557 | 3155 ft | 157 kts | 263° |
| 2026-04-24 12:36 | 41.98937 | -87.71985 | 2910 ft | 149 kts | 263° |
| 2026-04-24 12:37 | 41.98902 | -87.73350 | 2632 ft | 149 kts | 263° |
| 2026-04-24 12:37 | 41.98902 | -87.74769 | 2440 ft | 154 kts | 264° |
| 2026-04-24 12:37 | 41.98890 | -87.76222 | 2263 ft | 157 kts | 264° |
| 2026-04-24 12:37 | 41.98876 | -87.77710 | 2049 ft | 159 kts | 265° |
| 2026-04-24 12:38 | 41.98886 | -87.79201 | 1856 ft | 160 kts | 265° |
| 2026-04-24 12:38 | 41.98890 | -87.80686 | 1733 ft | 156 kts | 266° |
| 2026-04-24 12:38 | 41.98852 | -87.82157 | 1552 ft | 162 kts | 268° |
| 2026-04-24 12:39 | 41.98845 | -87.86887 | 1029 ft | 172 kts | 270° |
| 2026-04-24 12:39 | 41.98834 | -87.88472 | 793 ft | 171 kts | 272° |
| 2026-04-24 12:39 | 41.98829 | -87.90042 | 714 ft | 161 kts | 273° |
| 2026-04-24 12:40 | 41.98834 | -87.91412 | 674 ft | 131 kts | 269° |
| 2026-04-24 12:40 | 41.98830 | -87.92361 | 677 ft | 59 kts | 270° |
| 2026-04-24 12:40 | 41.98829 | -87.92748 | 677 ft | 38 kts | 269° |
| 2026-04-24 12:40 | 41.98804 | -87.92995 | 676 ft | 14 kts | 221° |
| 2026-04-24 12:41 | 41.98716 | -87.93015 | 675 ft | 2 kts | 179° |
| 2026-04-24 12:41 | 41.98705 | -87.93011 | 675 ft | 7 kts | 162° |
| 2026-04-24 12:41 | 41.98679 | -87.92895 | 676 ft | 20 kts | 90° |
| 2026-04-24 12:42 | 41.98679 | -87.92665 | 676 ft | 27 kts | 90° |
| 2026-04-24 12:42 | 41.98676 | -87.92444 | 676 ft | 14 kts | 106° |
| 2026-04-24 12:42 | 41.98583 | -87.92405 | 673 ft | 22 kts | 180° |
| 2026-04-24 12:42 | 41.98371 | -87.92402 | 672 ft | 38 kts | 179° |
| 2026-04-24 12:43 | 41.98193 | -87.92361 | 676 ft | 13 kts | 123° |
| 2026-04-24 12:43 | 41.98191 | -87.92215 | 676 ft | 20 kts | 91° |
| 2026-04-24 12:43 | 41.98170 | -87.91984 | 676 ft | 25 kts | 93° |
| 2026-04-24 12:43 | 41.98132 | -87.91832 | 675 ft | 18 kts | 160° |
| 2026-04-24 12:44 | 41.97974 | -87.91733 | 675 ft | 36 kts | 139° |
| 2026-04-24 12:44 | 41.97783 | -87.91514 | 676 ft | 28 kts | 140° |
| 2026-04-24 12:44 | 41.97755 | -87.91369 | 675 ft | 13 kts | 75° |
| 2026-04-24 12:44 | 41.97766 | -87.91277 | 676 ft | 5 kts | 54° |
| 2026-04-24 12:45 | 41.97791 | -87.91214 | 676 ft | 8 kts | 88° |
| 2026-04-24 12:45 | 41.97778 | -87.91159 | 672 ft | 2 kts | 103° |
| 2026-04-24 12:45 | 41.97777 | -87.91151 | 673 ft | 0 kts | 102° |